Wetterdaten: Donnerstag, 28.02.2013
Datum Zeit Temp. Aussen +5cm Feuchte Auss Luftdruck Regen Sonnenschein Regendauer UV Solar Windben
28.02.2013 00:00 1,0 C 0,1 C 93 % 1030,1 hPa 0,0 l/m 0 min 0 min 0,0 UV-I 0 W/m 0,0 km/h (0 Bft)
28.02.2013 00:02 1,0 C 0,1 C 93 % 1030,1 hPa 0,0 l/m 0 min 0 min 0,0 UV-I 0 W/m 0,0 km/h (0 Bft)
28.02.2013 00:04 1,0 C 0,1 C 93 % 1030,1 hPa 0,0 l/m 0 min 0 min 0,0 UV-I 0 W/m 0,0 km/h (0 Bft)
28.02.2013 00:06 1,0 C 0,1 C 93 % 1030,2 hPa 0,0 l/m 0 min 0 min 0,0 UV-I 0 W/m 0,0 km/h (0 Bft)
28.02.2013 00:08 1,0 C 0,1 C 93 % 1030,1 hPa 0,0 l/m 0 min 0 min 0,0 UV-I 0 W/m 0,0 km/h (0 Bft)
28.02.2013 00:10 1,0 C 0,1 C 93 % 1030,1 hPa 0,0 l/m 0 min 0 min 0,0 UV-I 0 W/m 0,0 km/h (0 Bft)
28.02.2013 00:12 1,0 C 0,1 C 93 % 1030,0 hPa 0,0 l/m 0 min 0 min 0,0 UV-I 0 W/m 0,0 km/h (0 Bft)
28.02.2013 00:14 1,0 C 0,1 C 93 % 1030,1 hPa 0,0 l/m 0 min 0 min 0,0 UV-I 0 W/m 0,0 km/h (0 Bft)
28.02.2013 00:16 1,0 C 0,1 C 93 % 1030,0 hPa 0,0 l/m 0 min 0 min 0,0 UV-I 0 W/m 0,0 km/h (0 Bft)
28.02.2013 00:18 1,0 C 0,1 C 93 % 1030,0 hPa 0,0 l/m 0 min 0 min 0,0 UV-I 0 W/m 0,0 km/h (0 Bft)
28.02.2013 00:20 1,0 C 0,1 C 93 % 1030,1 hPa 0,0 l/m 0 min 0 min 0,0 UV-I 0 W/m 0,0 km/h (0 Bft)
28.02.2013 00:22 1,0 C 0,1 C 92 % 1030,0 hPa 0,0 l/m 0 min 0 min 0,0 UV-I 0 W/m 0,0 km/h (0 Bft)
28.02.2013 00:24 1,0 C 0,1 C 92 % 1030,0 hPa 0,0 l/m 0 min 0 min 0,0 UV-I 0 W/m 0,0 km/h (0 Bft)
28.02.2013 00:26 1,0 C 0,1 C 93 % 1030,0 hPa 0,0 l/m 0 min 0 min 0,0 UV-I 0 W/m 0,0 km/h (0 Bft)
28.02.2013 00:28 1,0 C 0,1 C 92 % 1030,0 hPa 0,0 l/m 0 min 0 min 0,0 UV-I 0 W/m 0,0 km/h (0 Bft)
28.02.2013 00:30 1,0 C 0,1 C 92 % 1030,0 hPa 0,0 l/m 0 min 0 min 0,0 UV-I 0 W/m 0,0 km/h (0 Bft)
28.02.2013 00:32 1,0 C 0,1 C 92 % 1030,0 hPa 0,0 l/m 0 min 0 min 0,0 UV-I 0 W/m 0,0 km/h (0 Bft)
28.02.2013 00:34 1,0 C 0,1 C 92 % 1029,9 hPa 0,0 l/m 0 min 0 min 0,0 UV-I 0 W/m 0,0 km/h (0 Bft)
28.02.2013 00:36 0,9 C 0,1 C 92 % 1030,0 hPa 0,0 l/m 0 min 0 min 0,0 UV-I 0 W/m 0,0 km/h (0 Bft)
28.02.2013 00:38 1,0 C 0,1 C 92 % 1030,0 hPa 0,0 l/m 0 min 0 min 0,0 UV-I 0 W/m 0,0 km/h (0 Bft)
28.02.2013 00:40 0,9 C 0,1 C 92 % 1029,9 hPa 0,0 l/m 0 min 0 min 0,0 UV-I 0 W/m 0,0 km/h (0 Bft)
28.02.2013 00:42 1,0 C 0,1 C 92 % 1029,9 hPa 0,0 l/m 0 min 0 min 0,0 UV-I 0 W/m 0,0 km/h (0 Bft)
28.02.2013 00:44 1,0 C 0,1 C 92 % 1029,9 hPa 0,0 l/m 0 min 0 min 0,0 UV-I 0 W/m 0,0 km/h (0 Bft)
28.02.2013 00:46 1,0 C 0,1 C 92 % 1029,9 hPa 0,0 l/m 0 min 0 min 0,0 UV-I 0 W/m 0,0 km/h (0 Bft)
28.02.2013 00:48 1,0 C 0,1 C 92 % 1029,8 hPa 0,0 l/m 0 min 0 min 0,0 UV-I 0 W/m 0,0 km/h (0 Bft)
28.02.2013 00:50 1,0 C 0,1 C 92 % 1029,9 hPa 0,0 l/m 0 min 0 min 0,0 UV-I 0 W/m 0,0 km/h (0 Bft)
28.02.2013 00:52 1,0 C 0,1 C 92 % 1029,9 hPa 0,0 l/m 0 min 0 min 0,0 UV-I 0 W/m 0,0 km/h (0 Bft)
28.02.2013 00:54 1,0 C 0,1 C 92 % 1029,9 hPa 0,0 l/m 0 min 0 min 0,0 UV-I 0 W/m 0,0 km/h (0 Bft)
28.02.2013 00:56 0,9 C 0,1 C 92 % 1029,9 hPa 0,0 l/m 0 min 0 min 0,0 UV-I 0 W/m 2,6 km/h (1 Bft)
28.02.2013 00:58 0,9 C 0,1 C 93 % 1029,9 hPa 0,0 l/m 0 min 0 min 0,0 UV-I 0 W/m 2,6 km/h (1 Bft)
28.02.2013 01:00 0,9 C 0,1 C 93 % 1029,8 hPa 0,0 l/m 0 min 0 min 0,0 UV-I 0 W/m 0,0 km/h (0 Bft)
28.02.2013 01:02 0,9 C 0,1 C 93 % 1029,8 hPa 0,0 l/m 0 min 0 min 0,0 UV-I 0 W/m 0,0 km/h (0 Bft)
28.02.2013 01:04 0,9 C 0,1 C 93 % 1029,7 hPa 0,0 l/m 0 min 0 min 0,0 UV-I 0 W/m 0,0 km/h (0 Bft)
28.02.2013 01:06 0,9 C 0,1 C 93 % 1029,7 hPa 0,0 l/m 0 min 0 min 0,0 UV-I 0 W/m 0,0 km/h (0 Bft)
28.02.2013 01:08 0,9 C 0,1 C 93 % 1029,7 hPa 0,0 l/m 0 min 0 min 0,0 UV-I 0 W/m 0,0 km/h (0 Bft)
28.02.2013 01:10 0,9 C 0,1 C 93 % 1029,7 hPa 0,0 l/m 0 min 0 min 0,0 UV-I 0 W/m 0,0 km/h (0 Bft)
28.02.2013 01:12 0,9 C 0,1 C 93 % 1029,7 hPa 0,0 l/m 0 min 0 min 0,0 UV-I 0 W/m 5,1 km/h (1 Bft)
28.02.2013 01:14 1,0 C 0,1 C 93 % 1029,7 hPa 0,0 l/m 0 min 0 min 0,0 UV-I 0 W/m 0,0 km/h (0 Bft)
28.02.2013 01:16 0,9 C 0,1 C 93 % 1029,7 hPa 0,0 l/m 0 min 0 min 0,0 UV-I 0 W/m 0,0 km/h (0 Bft)
28.02.2013 01:18 0,9 C 0,1 C 93 % 1029,7 hPa 0,0 l/m 0 min 0 min 0,0 UV-I 0 W/m 2,6 km/h (1 Bft)
28.02.2013 01:20 0,9 C 0,1 C 93 % 1029,7 hPa 0,0 l/m 0 min 0 min 0,0 UV-I 0 W/m 0,0 km/h (0 Bft)
28.02.2013 01:22 0,9 C 0,1 C 93 % 1029,7 hPa 0,0 l/m 0 min 0 min 0,0 UV-I 0 W/m 5,1 km/h (1 Bft)
28.02.2013 01:24 0,9 C 0,1 C 93 % 1029,7 hPa 0,0 l/m 0 min 0 min 0,0 UV-I 0 W/m 0,0 km/h (0 Bft)
28.02.2013 01:26 1,0 C 0,1 C 93 % 1029,7 hPa 0,0 l/m 0 min 0 min 0,0 UV-I 0 W/m 2,6 km/h (1 Bft)
28.02.2013 01:28 0,9 C 0,1 C 93 % 1029,7 hPa 0,0 l/m 0 min 0 min 0,0 UV-I 0 W/m 0,0 km/h (0 Bft)
28.02.2013 01:30 0,9 C 0,1 C 93 % 1029,7 hPa 0,0 l/m 0 min 0 min 0,0 UV-I 0 W/m 0,0 km/h (0 Bft)
28.02.2013 01:32 1,0 C 0,1 C 93 % 1029,7 hPa 0,0 l/m 0 min 0 min 0,0 UV-I 0 W/m 0,0 km/h (0 Bft)
28.02.2013 01:34 1,0 C 0,1 C 93 % 1029,7 hPa 0,0 l/m 0 min 0 min 0,0 UV-I 0 W/m 0,0 km/h (0 Bft)
28.02.2013 01:36 0,9 C 0,1 C 93 % 1029,6 hPa 0,0 l/m 0 min 0 min 0,0 UV-I 0 W/m 0,0 km/h (0 Bft)
28.02.2013 01:38 1,0 C 0,1 C 93 % 1029,7 hPa 0,0 l/m 0 min 0 min 0,0 UV-I 0 W/m 0,0 km/h (0 Bft)
28.02.2013 01:40 0,9 C 0,1 C 93 % 1029,6 hPa 0,0 l/m 0 min 0 min 0,0 UV-I 0 W/m 5,1 km/h (1 Bft)
28.02.2013 01:42 0,9 C 0,1 C 93 % 1029,6 hPa 0,0 l/m 0 min 0 min 0,0 UV-I 0 W/m 7,7 km/h (2 Bft)
28.02.2013 01:44 1,0 C 0,1 C 93 % 1029,5 hPa 0,0 l/m 0 min 0 min 0,0 UV-I 0 W/m 0,0 km/h (0 Bft)
28.02.2013 01:46 1,0 C 0,1 C 93 % 1029,5 hPa 0,0 l/m 0 min 0 min 0,0 UV-I 0 W/m 2,6 km/h (1 Bft)
28.02.2013 01:48 1,0 C 0,1 C 93 % 1029,5 hPa 0,0 l/m 0 min 0 min 0,0 UV-I 0 W/m 2,6 km/h (1 Bft)
28.02.2013 01:50 1,0 C 0,1 C 93 % 1029,4 hPa 0,0 l/m 0 min 0 min 0,0 UV-I 0 W/m 0,0 km/h (0 Bft)
28.02.2013 01:52 1,0 C 0,1 C 93 % 1029,4 hPa 0,0 l/m 0 min 0 min 0,0 UV-I 0 W/m 0,0 km/h (0 Bft)
28.02.2013 01:54 1,0 C 0,1 C 93 % 1029,4 hPa 0,0 l/m 0 min 0 min 0,0 UV-I 0 W/m 0,0 km/h (0 Bft)
28.02.2013 01:56 1,0 C 0,1 C 93 % 1029,4 hPa 0,0 l/m 0 min 0 min 0,0 UV-I 0 W/m 2,6 km/h (1 Bft)
28.02.2013 01:58 0,9 C 0,1 C 93 % 1029,3 hPa 0,0 l/m 0 min 0 min 0,0 UV-I 0 W/m 0,0 km/h (0 Bft)
28.02.2013 02:00 0,9 C 0,1 C 93 % 1029,3 hPa 0,0 l/m 0 min 0 min 0,0 UV-I 0 W/m 0,0 km/h (0 Bft)
28.02.2013 02:02 1,0 C 0,1 C 93 % 1029,3 hPa 0,0 l/m 0 min 0 min 0,0 UV-I 0 W/m 0,0 km/h (0 Bft)
28.02.2013 02:04 0,9 C 0,1 C 93 % 1029,3 hPa 0,0 l/m 0 min 0 min 0,0 UV-I 0 W/m 0,0 km/h (0 Bft)
28.02.2013 02:06 0,9 C 0,1 C 93 % 1029,2 hPa 0,0 l/m 0 min 0 min 0,0 UV-I 0 W/m 0,0 km/h (0 Bft)
28.02.2013 02:08 1,0 C 0,1 C 93 % 1029,2 hPa 0,0 l/m 0 min 0 min 0,0 UV-I 0 W/m 0,0 km/h (0 Bft)
28.02.2013 02:10 0,9 C 0,1 C 93 % 1029,2 hPa 0,0 l/m 0 min 0 min 0,0 UV-I 0 W/m 0,0 km/h (0 Bft)
28.02.2013 02:12 0,9 C 0,1 C 93 % 1029,1 hPa 0,0 l/m 0 min 0 min 0,0 UV-I 0 W/m 0,0 km/h (0 Bft)
28.02.2013 02:14 0,9 C 0,1 C 93 % 1029,2 hPa 0,0 l/m 0 min 0 min 0,0 UV-I 0 W/m 0,0 km/h (0 Bft)
28.02.2013 02:16 0,9 C 0,1 C 93 % 1029,2 hPa 0,0 l/m 0 min 0 min 0,0 UV-I 0 W/m 0,0 km/h (0 Bft)
28.02.2013 02:18 0,9 C 0,1 C 93 % 1029,1 hPa 0,0 l/m 0 min 0 min 0,0 UV-I 0 W/m 0,0 km/h (0 Bft)
28.02.2013 02:20 0,9 C 0,1 C 93 % 1029,1 hPa 0,0 l/m 0 min 0 min 0,0 UV-I 0 W/m 0,0 km/h (0 Bft)
28.02.2013 02:22 0,9 C 0,1 C 93 % 1029,0 hPa 0,0 l/m 0 min 0 min 0,0 UV-I 0 W/m 0,0 km/h (0 Bft)
28.02.2013 02:24 0,9 C 0,1 C 93 % 1029,0 hPa 0,0 l/m 0 min 0 min 0,0 UV-I 0 W/m 0,0 km/h (0 Bft)
28.02.2013 02:26 0,9 C 0,1 C 93 % 1029,0 hPa 0,0 l/m 0 min 0 min 0,0 UV-I 0 W/m 2,6 km/h (1 Bft)
28.02.2013 02:28 0,9 C 0,1 C 93 % 1029,0 hPa 0,0 l/m 0 min 0 min 0,0 UV-I 0 W/m 5,1 km/h (1 Bft)
28.02.2013 02:30 0,9 C 0,1 C 93 % 1029,0 hPa 0,0 l/m 0 min 0 min 0,0 UV-I 0 W/m 5,1 km/h (1 Bft)
28.02.2013 02:32 0,9 C 0,1 C 93 % 1029,0 hPa 0,0 l/m 0 min 0 min 0,0 UV-I 0 W/m 2,6 km/h (1 Bft)
28.02.2013 02:34 0,9 C 0,1 C 93 % 1029,0 hPa 0,0 l/m 0 min 0 min 0,0 UV-I 0 W/m 0,0 km/h (0 Bft)
28.02.2013 02:36 0,9 C 0,1 C 93 % 1028,9 hPa 0,0 l/m 0 min 0 min 0,0 UV-I 0 W/m 0,0 km/h (0 Bft)
28.02.2013 02:38 0,9 C 0,1 C 93 % 1028,9 hPa 0,0 l/m 0 min 0 min 0,0 UV-I 0 W/m 0,0 km/h (0 Bft)
28.02.2013 02:40 0,9 C 0,1 C 93 % 1028,9 hPa 0,0 l/m 0 min 0 min 0,0 UV-I 0 W/m 5,1 km/h (1 Bft)
28.02.2013 02:42 0,9 C 0,1 C 93 % 1028,9 hPa 0,0 l/m 0 min 0 min 0,0 UV-I 0 W/m 0,0 km/h (0 Bft)
28.02.2013 02:44 0,9 C 0,1 C 93 % 1028,9 hPa 0,0 l/m 0 min 0 min 0,0 UV-I 0 W/m 0,0 km/h (0 Bft)
28.02.2013 02:46 0,9 C 0,1 C 93 % 1028,9 hPa 0,0 l/m 0 min 0 min 0,0 UV-I 0 W/m 0,0 km/h (0 Bft)
28.02.2013 02:48 0,9 C 0,1 C 93 % 1028,8 hPa 0,0 l/m 0 min 0 min 0,0 UV-I 0 W/m 0,0 km/h (0 Bft)
28.02.2013 02:50 0,9 C 0,1 C 93 % 1028,8 hPa 0,0 l/m 0 min 0 min 0,0 UV-I 0 W/m 0,0 km/h (0 Bft)
28.02.2013 02:52 0,9 C 0,1 C 93 % 1028,8 hPa 0,0 l/m 0 min 0 min 0,0 UV-I 0 W/m 0,0 km/h (0 Bft)
28.02.2013 02:54 0,9 C 0,1 C 93 % 1028,8 hPa 0,0 l/m 0 min 0 min 0,0 UV-I 0 W/m 0,0 km/h (0 Bft)
28.02.2013 02:56 0,9 C 0,1 C 93 % 1028,9 hPa 0,0 l/m 0 min 0 min 0,0 UV-I 0 W/m 0,0 km/h (0 Bft)
28.02.2013 02:58 0,9 C 0,1 C 93 % 1028,8 hPa 0,0 l/m 0 min 0 min 0,0 UV-I 0 W/m 0,0 km/h (0 Bft)
28.02.2013 03:00 0,9 C 0,1 C 93 % 1028,8 hPa 0,0 l/m 0 min 0 min 0,0 UV-I 0 W/m 2,6 km/h (1 Bft)
28.02.2013 03:02 0,9 C 0,1 C 93 % 1028,8 hPa 0,0 l/m 0 min 0 min 0,0 UV-I 0 W/m 0,0 km/h (0 Bft)
28.02.2013 03:06 0,9 C 0,1 C 93 % 1028,8 hPa 0,0 l/m 0 min 0 min 0,0 UV-I 0 W/m 2,6 km/h (1 Bft)
28.02.2013 03:08 0,9 C 0,1 C 93 % 1028,8 hPa 0,0 l/m 0 min 0 min 0,0 UV-I 0 W/m 2,6 km/h (1 Bft)
28.02.2013 03:10 0,9 C 0,1 C 93 % 1028,8 hPa 0,0 l/m 0 min 0 min 0,0 UV-I 0 W/m 0,0 km/h (0 Bft)
28.02.2013 03:12 0,9 C 0,1 C 93 % 1028,8 hPa 0,0 l/m 0 min 0 min 0,0 UV-I 0 W/m 5,1 km/h (1 Bft)
28.02.2013 03:14 0,9 C 0,1 C 93 % 1028,7 hPa 0,0 l/m 0 min 0 min 0,0 UV-I 0 W/m 0,0 km/h (0 Bft)
28.02.2013 03:16 0,9 C 0,1 C 93 % 1028,6 hPa 0,0 l/m 0 min 0 min 0,0 UV-I 0 W/m 0,0 km/h (0 Bft)
28.02.2013 03:18 0,9 C 0,1 C 93 % 1028,7 hPa 0,0 l/m 0 min 0 min 0,0 UV-I 0 W/m 0,0 km/h (0 Bft)
28.02.2013 03:20 0,9 C 0,1 C 93 % 1028,6 hPa 0,0 l/m 0 min 0 min 0,0 UV-I 0 W/m 0,0 km/h (0 Bft)
28.02.2013 03:22 0,9 C 0,1 C 93 % 1028,6 hPa 0,0 l/m 0 min 0 min 0,0 UV-I 0 W/m 0,0 km/h (0 Bft)
28.02.2013 03:24 0,9 C 0,1 C 93 % 1028,5 hPa 0,0 l/m 0 min 0 min 0,0 UV-I 0 W/m 0,0 km/h (0 Bft)
28.02.2013 03:26 0,9 C 0,1 C 93 % 1028,5 hPa 0,0 l/m 0 min 0 min 0,0 UV-I 0 W/m 0,0 km/h (0 Bft)
28.02.2013 03:28 0,9 C 0,1 C 93 % 1028,5 hPa 0,0 l/m 0 min 0 min 0,0 UV-I 0 W/m 0,0 km/h (0 Bft)
28.02.2013 03:30 0,9 C 0,1 C 93 % 1028,5 hPa 0,0 l/m 0 min 0 min 0,0 UV-I 0 W/m 0,0 km/h (0 Bft)
28.02.2013 03:32 0,9 C 0,1 C 93 % 1028,4 hPa 0,0 l/m 0 min 0 min 0,0 UV-I 0 W/m 0,0 km/h (0 Bft)
28.02.2013 03:34 0,9 C 0,1 C 93 % 1028,4 hPa 0,0 l/m 0 min 0 min 0,0 UV-I 0 W/m 0,0 km/h (0 Bft)
28.02.2013 03:36 0,9 C 0,1 C 93 % 1028,4 hPa 0,0 l/m 0 min 0 min 0,0 UV-I 0 W/m 0,0 km/h (0 Bft)
28.02.2013 03:38 0,9 C 0,1 C 93 % 1028,4 hPa 0,0 l/m 0 min 0 min 0,0 UV-I 0 W/m 0,0 km/h (0 Bft)
28.02.2013 03:40 0,9 C 0,1 C 93 % 1028,3 hPa 0,0 l/m 0 min 0 min 0,0 UV-I 0 W/m 0,0 km/h (0 Bft)
28.02.2013 03:42 0,9 C 0,1 C 93 % 1028,3 hPa 0,0 l/m 0 min 0 min 0,0 UV-I 0 W/m 0,0 km/h (0 Bft)
28.02.2013 03:44 0,9 C 0,1 C 93 % 1028,3 hPa 0,0 l/m 0 min 0 min 0,0 UV-I 0 W/m 0,0 km/h (0 Bft)
28.02.2013 03:46 0,9 C 0,1 C 93 % 1028,3 hPa 0,0 l/m 0 min 0 min 0,0 UV-I 0 W/m 0,0 km/h (0 Bft)
28.02.2013 03:48 0,9 C 0,1 C 93 % 1028,3 hPa 0,0 l/m 0 min 0 min 0,0 UV-I 0 W/m 0,0 km/h (0 Bft)
28.02.2013 03:50 0,9 C 0,1 C 93 % 1028,3 hPa 0,0 l/m 0 min 0 min 0,0 UV-I 0 W/m 0,0 km/h (0 Bft)
28.02.2013 03:52 0,9 C 0,1 C 93 % 1028,3 hPa 0,0 l/m 0 min 0 min 0,0 UV-I 0 W/m 0,0 km/h (0 Bft)
28.02.2013 03:54 0,9 C 0,1 C 93 % 1028,2 hPa 0,0 l/m 0 min 0 min 0,0 UV-I 0 W/m 0,0 km/h (0 Bft)
28.02.2013 03:56 0,9 C 0,1 C 93 % 1028,2 hPa 0,0 l/m 0 min 0 min 0,0 UV-I 0 W/m 0,0 km/h (0 Bft)
28.02.2013 03:58 0,9 C 0,1 C 94 % 1028,2 hPa 0,0 l/m 0 min 0 min 0,0 UV-I 0 W/m 0,0 km/h (0 Bft)
28.02.2013 04:00 0,9 C 0,1 C 94 % 1028,2 hPa 0,0 l/m 0 min 0 min 0,0 UV-I 0 W/m 0,0 km/h (0 Bft)
28.02.2013 04:02 0,9 C 0,1 C 94 % 1028,2 hPa 0,0 l/m 0 min 0 min 0,0 UV-I 0 W/m 0,0 km/h (0 Bft)
28.02.2013 04:04 0,9 C 0,1 C 94 % 1028,2 hPa 0,0 l/m 0 min 0 min 0,0 UV-I 0 W/m 0,0 km/h (0 Bft)
28.02.2013 04:06 0,9 C 0,1 C 94 % 1028,2 hPa 0,0 l/m 0 min 0 min 0,0 UV-I 0 W/m 2,6 km/h (1 Bft)
28.02.2013 04:08 0,9 C 0,1 C 94 % 1028,2 hPa 0,0 l/m 0 min 0 min 0,0 UV-I 0 W/m 0,0 km/h (0 Bft)
28.02.2013 04:10 0,9 C 0,1 C 93 % 1028,2 hPa 0,0 l/m 0 min 0 min 0,0 UV-I 0 W/m 0,0 km/h (0 Bft)
28.02.2013 04:12 0,9 C 0,1 C 93 % 1028,2 hPa 0,0 l/m 0 min 0 min 0,0 UV-I 0 W/m 0,0 km/h (0 Bft)
28.02.2013 04:14 0,9 C 0,1 C 93 % 1028,2 hPa 0,0 l/m 0 min 0 min 0,0 UV-I 0 W/m 0,0 km/h (0 Bft)
28.02.2013 04:16 0,9 C 0,1 C 93 % 1028,3 hPa 0,0 l/m 0 min 0 min 0,0 UV-I 0 W/m 0,0 km/h (0 Bft)
28.02.2013 04:18 0,9 C 0,1 C 93 % 1028,2 hPa 0,0 l/m 0 min 0 min 0,0 UV-I 0 W/m 0,0 km/h (0 Bft)
28.02.2013 04:20 0,9 C 0,1 C 93 % 1028,2 hPa 0,0 l/m 0 min 0 min 0,0 UV-I 0 W/m 0,0 km/h (0 Bft)
28.02.2013 04:22 0,9 C 0,1 C 93 % 1028,2 hPa 0,0 l/m 0 min 0 min 0,0 UV-I 0 W/m 0,0 km/h (0 Bft)
28.02.2013 04:24 0,9 C 0,1 C 93 % 1028,2 hPa 0,0 l/m 0 min 0 min 0,0 UV-I 0 W/m 5,1 km/h (1 Bft)
28.02.2013 04:26 0,9 C 0,1 C 93 % 1028,1 hPa 0,0 l/m 0 min 0 min 0,0 UV-I 0 W/m 0,0 km/h (0 Bft)
28.02.2013 04:28 0,9 C 0,1 C 93 % 1028,2 hPa 0,0 l/m 0 min 0 min 0,0 UV-I 0 W/m 0,0 km/h (0 Bft)
28.02.2013 04:30 0,9 C 0,1 C 93 % 1028,2 hPa 0,0 l/m 0 min 0 min 0,0 UV-I 0 W/m 0,0 km/h (0 Bft)
28.02.2013 04:32 0,9 C 0,1 C 94 % 1028,2 hPa 0,0 l/m 0 min 0 min 0,0 UV-I 0 W/m 0,0 km/h (0 Bft)
28.02.2013 04:34 0,9 C 0,1 C 94 % 1028,2 hPa 0,0 l/m 0 min 0 min 0,0 UV-I 0 W/m 0,0 km/h (0 Bft)
28.02.2013 04:36 0,9 C 0,1 C 94 % 1028,1 hPa 0,0 l/m 0 min 0 min 0,0 UV-I 0 W/m 0,0 km/h (0 Bft)
28.02.2013 04:38 0,9 C 0,1 C 94 % 1028,1 hPa 0,0 l/m 0 min 0 min 0,0 UV-I 0 W/m 0,0 km/h (0 Bft)
28.02.2013 04:40 0,9 C 0,1 C 94 % 1028,1 hPa 0,0 l/m 0 min 0 min 0,0 UV-I 0 W/m 0,0 km/h (0 Bft)
28.02.2013 04:42 0,9 C 0,1 C 94 % 1028,1 hPa 0,0 l/m 0 min 0 min 0,0 UV-I 0 W/m 0,0 km/h (0 Bft)
28.02.2013 04:44 0,9 C 0,1 C 94 % 1028,2 hPa 0,0 l/m 0 min 0 min 0,0 UV-I 0 W/m 0,0 km/h (0 Bft)
28.02.2013 04:46 0,9 C 0,1 C 94 % 1028,2 hPa 0,0 l/m 0 min 0 min 0,0 UV-I 0 W/m 0,0 km/h (0 Bft)
28.02.2013 04:48 0,9 C 0,1 C 94 % 1028,2 hPa 0,0 l/m 0 min 0 min 0,0 UV-I 0 W/m 0,0 km/h (0 Bft)
28.02.2013 04:50 0,9 C 0,1 C 94 % 1028,2 hPa 0,0 l/m 0 min 0 min 0,0 UV-I 0 W/m 0,0 km/h (0 Bft)
28.02.2013 04:52 0,9 C 0,1 C 94 % 1028,2 hPa 0,0 l/m 0 min 0 min 0,0 UV-I 0 W/m 0,0 km/h (0 Bft)
28.02.2013 04:54 0,9 C 0,1 C 94 % 1028,1 hPa 0,0 l/m 0 min 0 min 0,0 UV-I 0 W/m 0,0 km/h (0 Bft)
28.02.2013 04:56 0,9 C 0,1 C 94 % 1028,1 hPa 0,0 l/m 0 min 0 min 0,0 UV-I 0 W/m 2,6 km/h (1 Bft)
28.02.2013 04:58 0,9 C 0,1 C 94 % 1028,1 hPa 0,0 l/m 0 min 0 min 0,0 UV-I 0 W/m 2,6 km/h (1 Bft)
28.02.2013 05:00 0,9 C 0,1 C 94 % 1028,1 hPa 0,0 l/m 0 min 0 min 0,0 UV-I 0 W/m 0,0 km/h (0 Bft)
28.02.2013 05:02 0,9 C 0,1 C 94 % 1028,2 hPa 0,0 l/m 0 min 0 min 0,0 UV-I 0 W/m 0,0 km/h (0 Bft)
28.02.2013 05:04 0,9 C 0,1 C 94 % 1028,2 hPa 0,0 l/m 0 min 0 min 0,0 UV-I 0 W/m 0,0 km/h (0 Bft)
28.02.2013 05:06 0,9 C 0,1 C 94 % 1028,1 hPa 0,0 l/m 0 min 0 min 0,0 UV-I 0 W/m 0,0 km/h (0 Bft)
28.02.2013 05:08 0,9 C 0,1 C 94 % 1028,1 hPa 0,0 l/m 0 min 0 min 0,0 UV-I 0 W/m 0,0 km/h (0 Bft)
28.02.2013 05:10 0,9 C 0,1 C 94 % 1028,1 hPa 0,0 l/m 0 min 0 min 0,0 UV-I 0 W/m 0,0 km/h (0 Bft)
28.02.2013 05:12 1,0 C 0,1 C 94 % 1028,1 hPa 0,0 l/m 0 min 0 min 0,0 UV-I 0 W/m 0,0 km/h (0 Bft)
28.02.2013 05:14 0,9 C 0,1 C 94 % 1028,1 hPa 0,0 l/m 0 min 0 min 0,0 UV-I 0 W/m 5,1 km/h (1 Bft)
28.02.2013 05:16 1,0 C 0,1 C 94 % 1028,0 hPa 0,0 l/m 0 min 0 min 0,0 UV-I 0 W/m 2,6 km/h (1 Bft)
28.02.2013 05:18 0,9 C 0,1 C 94 % 1028,0 hPa 0,0 l/m 0 min 0 min 0,0 UV-I 0 W/m 0,0 km/h (0 Bft)
28.02.2013 05:20 0,9 C 0,1 C 94 % 1027,9 hPa 0,0 l/m 0 min 0 min 0,0 UV-I 0 W/m 5,1 km/h (1 Bft)
28.02.2013 05:22 0,9 C 0,1 C 94 % 1027,9 hPa 0,0 l/m 0 min 0 min 0,0 UV-I 0 W/m 0,0 km/h (0 Bft)
28.02.2013 05:24 0,9 C 0,1 C 94 % 1027,9 hPa 0,0 l/m 0 min 0 min 0,0 UV-I 0 W/m 0,0 km/h (0 Bft)
28.02.2013 05:26 0,9 C 0,1 C 93 % 1027,9 hPa 0,0 l/m 0 min 0 min 0,0 UV-I 0 W/m 0,0 km/h (0 Bft)
28.02.2013 05:28 0,9 C 0,1 C 93 % 1028,0 hPa 0,0 l/m 0 min 0 min 0,0 UV-I 0 W/m 0,0 km/h (0 Bft)
28.02.2013 05:30 0,9 C 0,1 C 93 % 1027,9 hPa 0,0 l/m 0 min 0 min 0,0 UV-I 0 W/m 0,0 km/h (0 Bft)
28.02.2013 05:32 0,9 C 0,1 C 93 % 1028,0 hPa 0,0 l/m 0 min 0 min 0,0 UV-I 0 W/m 0,0 km/h (0 Bft)
28.02.2013 05:34 0,9 C 0,1 C 93 % 1027,9 hPa 0,0 l/m 0 min 0 min 0,0 UV-I 0 W/m 0,0 km/h (0 Bft)
28.02.2013 05:36 0,9 C 0,1 C 93 % 1027,9 hPa 0,0 l/m 0 min 0 min 0,0 UV-I 0 W/m 0,0 km/h (0 Bft)
28.02.2013 05:38 0,9 C 0,1 C 93 % 1027,9 hPa 0,0 l/m 0 min 0 min 0,0 UV-I 0 W/m 0,0 km/h (0 Bft)
28.02.2013 05:40 0,9 C 0,1 C 93 % 1028,0 hPa 0,0 l/m 0 min 0 min 0,0 UV-I 0 W/m 0,0 km/h (0 Bft)
28.02.2013 05:42 0,9 C 0,1 C 93 % 1028,0 hPa 0,0 l/m 0 min 0 min 0,0 UV-I 0 W/m 0,0 km/h (0 Bft)
28.02.2013 05:44 0,9 C 0,1 C 93 % 1028,0 hPa 0,0 l/m 0 min 0 min 0,0 UV-I 0 W/m 0,0 km/h (0 Bft)
28.02.2013 05:46 0,9 C 0,1 C 93 % 1028,0 hPa 0,0 l/m 0 min 0 min 0,0 UV-I 0 W/m 0,0 km/h (0 Bft)
28.02.2013 05:48 0,9 C 0,1 C 93 % 1028,0 hPa 0,0 l/m 0 min 0 min 0,0 UV-I 0 W/m 0,0 km/h (0 Bft)
28.02.2013 05:50 0,9 C 0,1 C 93 % 1028,0 hPa 0,0 l/m 0 min 0 min 0,0 UV-I 0 W/m 0,0 km/h (0 Bft)
28.02.2013 05:52 0,9 C 0,1 C 93 % 1027,8 hPa 0,0 l/m 0 min 0 min 0,0 UV-I 0 W/m 0,0 km/h (0 Bft)
28.02.2013 05:54 0,9 C 0,1 C 93 % 1027,8 hPa 0,0 l/m 0 min 0 min 0,0 UV-I 0 W/m 0,0 km/h (0 Bft)
28.02.2013 05:56 0,9 C 0,1 C 93 % 1027,8 hPa 0,0 l/m 0 min 0 min 0,0 UV-I 0 W/m 0,0 km/h (0 Bft)
28.02.2013 05:58 0,9 C 0,1 C 94 % 1027,7 hPa 0,0 l/m 0 min 0 min 0,0 UV-I 0 W/m 0,0 km/h (0 Bft)
28.02.2013 06:00 0,9 C 0,1 C 94 % 1027,8 hPa 0,0 l/m 0 min 0 min 0,0 UV-I 0 W/m 0,0 km/h (0 Bft)
28.02.2013 06:02 0,9 C 0,1 C 94 % 1027,7 hPa 0,0 l/m 0 min 0 min 0,0 UV-I 0 W/m 0,0 km/h (0 Bft)
28.02.2013 06:04 0,9 C 0,1 C 94 % 1027,8 hPa 0,0 l/m 0 min 0 min 0,0 UV-I 0 W/m 0,0 km/h (0 Bft)
28.02.2013 06:06 0,9 C 0,1 C 94 % 1027,7 hPa 0,0 l/m 0 min 0 min 0,0 UV-I 0 W/m 0,0 km/h (0 Bft)
28.02.2013 06:08 0,9 C 0,1 C 94 % 1027,7 hPa 0,0 l/m 0 min 0 min 0,0 UV-I 0 W/m 0,0 km/h (0 Bft)
28.02.2013 06:10 0,9 C 0,1 C 94 % 1027,8 hPa 0,0 l/m 0 min 0 min 0,0 UV-I 0 W/m 0,0 km/h (0 Bft)
28.02.2013 06:12 0,9 C 0,1 C 94 % 1027,7 hPa 0,0 l/m 0 min 0 min 0,0 UV-I 0 W/m 0,0 km/h (0 Bft)
28.02.2013 06:14 0,9 C 0,1 C 94 % 1027,7 hPa 0,0 l/m 0 min 0 min 0,0 UV-I 0 W/m 2,6 km/h (1 Bft)
28.02.2013 06:16 0,9 C 0,1 C 94 % 1027,7 hPa 0,0 l/m 0 min 0 min 0,0 UV-I 0 W/m 0,0 km/h (0 Bft)
28.02.2013 06:18 0,9 C 0,1 C 94 % 1027,7 hPa 0,0 l/m 0 min 0 min 0,0 UV-I 0 W/m 0,0 km/h (0 Bft)
28.02.2013 06:20 0,9 C 0,1 C 94 % 1027,6 hPa 0,0 l/m 0 min 0 min 0,0 UV-I 0 W/m 0,0 km/h (0 Bft)
28.02.2013 06:22 0,9 C 0,1 C 94 % 1027,7 hPa 0,0 l/m 0 min 0 min 0,0 UV-I 0 W/m 0,0 km/h (0 Bft)
28.02.2013 06:24 0,9 C 0,1 C 93 % 1027,6 hPa 0,0 l/m 0 min 0 min 0,0 UV-I 0 W/m 7,7 km/h (2 Bft)
28.02.2013 06:26 0,9 C 0,1 C 93 % 1027,6 hPa 0,0 l/m 0 min 0 min 0,0 UV-I 0 W/m 5,1 km/h (1 Bft)
28.02.2013 06:28 0,9 C 0,1 C 93 % 1027,6 hPa 0,0 l/m 0 min 0 min 0,0 UV-I 0 W/m 2,6 km/h (1 Bft)
28.02.2013 06:30 0,9 C 0,1 C 93 % 1027,6 hPa 0,0 l/m 0 min 0 min 0,0 UV-I 0 W/m 0,0 km/h (0 Bft)
28.02.2013 06:32 0,9 C 0,1 C 93 % 1027,6 hPa 0,0 l/m 0 min 0 min 0,0 UV-I 0 W/m 0,0 km/h (0 Bft)
28.02.2013 06:34 0,9 C 0,1 C 93 % 1027,6 hPa 0,0 l/m 0 min 0 min 0,0 UV-I 0 W/m 0,0 km/h (0 Bft)
28.02.2013 06:36 0,9 C 0,1 C 93 % 1027,6 hPa 0,0 l/m 0 min 0 min 0,0 UV-I 0 W/m 5,1 km/h (1 Bft)
28.02.2013 06:38 0,9 C 0,1 C 93 % 1027,6 hPa 0,0 l/m 0 min 0 min 0,0 UV-I 0 W/m 0,0 km/h (0 Bft)
28.02.2013 06:40 0,9 C 0,1 C 93 % 1027,5 hPa 0,0 l/m 0 min 0 min 0,0 UV-I 0 W/m 0,0 km/h (0 Bft)
28.02.2013 06:42 0,9 C 0,1 C 93 % 1027,6 hPa 0,0 l/m 0 min 0 min 0,0 UV-I 0 W/m 0,0 km/h (0 Bft)
28.02.2013 06:44 0,9 C 0,1 C 93 % 1027,6 hPa 0,0 l/m 0 min 0 min 0,0 UV-I 0 W/m 0,0 km/h (0 Bft)
28.02.2013 06:46 0,9 C 0,1 C 93 % 1027,7 hPa 0,0 l/m 0 min 0 min 0,0 UV-I 0 W/m 0,0 km/h (0 Bft)
28.02.2013 06:48 0,9 C 0,1 C 93 % 1027,7 hPa 0,0 l/m 0 min 0 min 0,0 UV-I 0 W/m 0,0 km/h (0 Bft)
28.02.2013 06:50 0,9 C 0,1 C 93 % 1027,6 hPa 0,0 l/m 0 min 0 min 0,0 UV-I 0 W/m 0,0 km/h (0 Bft)
28.02.2013 06:52 0,9 C 0,1 C 93 % 1027,6 hPa 0,0 l/m 0 min 0 min 0,0 UV-I 0 W/m 0,0 km/h (0 Bft)
28.02.2013 06:54 0,9 C 0,1 C 93 % 1027,6 hPa 0,0 l/m 0 min 0 min 0,0 UV-I 0 W/m 0,0 km/h (0 Bft)
28.02.2013 06:56 0,9 C 0,1 C 93 % 1027,6 hPa 0,0 l/m 0 min 0 min 0,0 UV-I 0 W/m 0,0 km/h (0 Bft)
28.02.2013 06:58 0,9 C 0,1 C 94 % 1027,6 hPa 0,0 l/m 0 min 0 min 0,0 UV-I 0 W/m 0,0 km/h (0 Bft)
28.02.2013 07:00 0,9 C 0,1 C 93 % 1027,6 hPa 0,0 l/m 0 min 0 min 0,0 UV-I 0 W/m 0,0 km/h (0 Bft)
28.02.2013 07:02 0,9 C 0,1 C 93 % 1027,6 hPa 0,0 l/m 0 min 0 min 0,0 UV-I 0 W/m 0,0 km/h (0 Bft)
28.02.2013 07:04 0,9 C 0,1 C 93 % 1027,6 hPa 0,0 l/m 0 min 0 min 0,0 UV-I 0 W/m 0,0 km/h (0 Bft)
28.02.2013 07:06 0,9 C 0,1 C 93 % 1027,7 hPa 0,0 l/m 0 min 0 min 0,0 UV-I 0 W/m 0,0 km/h (0 Bft)
28.02.2013 07:08 0,9 C 0,1 C 93 % 1027,7 hPa 0,0 l/m 0 min 0 min 0,0 UV-I 0 W/m 0,0 km/h (0 Bft)
28.02.2013 07:10 0,9 C 0,1 C 93 % 1027,7 hPa 0,0 l/m 0 min 0 min 0,0 UV-I 0 W/m 5,1 km/h (1 Bft)
28.02.2013 07:12 0,9 C 0,1 C 93 % 1027,7 hPa 0,0 l/m 0 min 0 min 0,0 UV-I 0 W/m 5,1 km/h (1 Bft)
28.02.2013 07:14 0,9 C 0,1 C 94 % 1027,7 hPa 0,0 l/m 0 min 0 min 0,0 UV-I 0 W/m 2,6 km/h (1 Bft)
28.02.2013 07:16 0,9 C 0,1 C 94 % 1027,7 hPa 0,0 l/m 0 min 0 min 0,0 UV-I 0 W/m 5,1 km/h (1 Bft)
28.02.2013 07:18 0,9 C 0,1 C 94 % 1027,7 hPa 0,0 l/m 0 min 0 min 0,0 UV-I 0 W/m 0,0 km/h (0 Bft)
28.02.2013 07:20 0,9 C 0,1 C 94 % 1027,7 hPa 0,0 l/m 0 min 0 min 0,0 UV-I 0 W/m 0,0 km/h (0 Bft)
28.02.2013 07:22 0,9 C 0,1 C 93 % 1027,7 hPa 0,0 l/m 0 min 0 min 0,0 UV-I 0 W/m 0,0 km/h (0 Bft)
28.02.2013 07:24 0,9 C 0,1 C 93 % 1027,7 hPa 0,0 l/m 0 min 0 min 0,0 UV-I 0 W/m 0,0 km/h (0 Bft)
28.02.2013 07:26 0,9 C 0,1 C 93 % 1027,7 hPa 0,0 l/m 0 min 0 min 0,0 UV-I 0 W/m 0,0 km/h (0 Bft)
28.02.2013 07:28 0,9 C 0,1 C 93 % 1027,7 hPa 0,0 l/m 0 min 0 min 0,0 UV-I 0 W/m 0,0 km/h (0 Bft)
28.02.2013 07:30 0,9 C 0,1 C 93 % 1027,6 hPa 0,0 l/m 0 min 0 min 0,0 UV-I 0 W/m 0,0 km/h (0 Bft)
28.02.2013 07:32 0,9 C 0,1 C 93 % 1027,7 hPa 0,0 l/m 0 min 0 min 0,0 UV-I 0 W/m 0,0 km/h (0 Bft)
28.02.2013 07:34 0,9 C 0,1 C 93 % 1027,7 hPa 0,0 l/m 0 min 0 min 0,0 UV-I 0 W/m 0,0 km/h (0 Bft)
28.02.2013 07:36 0,9 C 0,1 C 93 % 1027,7 hPa 0,0 l/m 0 min 0 min 0,0 UV-I 0 W/m 0,0 km/h (0 Bft)
28.02.2013 07:38 0,9 C 0,1 C 93 % 1027,7 hPa 0,0 l/m 0 min 0 min 0,0 UV-I 0 W/m 0,0 km/h (0 Bft)
28.02.2013 07:40 0,9 C 0,1 C 93 % 1027,7 hPa 0,0 l/m 0 min 0 min 0,0 UV-I 5 W/m 0,0 km/h (0 Bft)
28.02.2013 07:42 0,9 C 0,1 C 93 % 1027,8 hPa 0,0 l/m 0 min 0 min 0,0 UV-I 5 W/m 2,6 km/h (1 Bft)
28.02.2013 07:44 0,9 C 0,1 C 93 % 1027,7 hPa 0,0 l/m 0 min 0 min 0,0 UV-I 5 W/m 0,0 km/h (0 Bft)
28.02.2013 07:46 0,9 C 0,1 C 93 % 1027,8 hPa 0,0 l/m 0 min 0 min 0,0 UV-I 5 W/m 2,6 km/h (1 Bft)
28.02.2013 07:48 0,9 C 0,1 C 93 % 1027,9 hPa 0,0 l/m 0 min 0 min 0,0 UV-I 5 W/m 0,0 km/h (0 Bft)
28.02.2013 07:50 0,9 C 0,1 C 93 % 1027,9 hPa 0,0 l/m 0 min 0 min 0,0 UV-I 5 W/m 0,0 km/h (0 Bft)
28.02.2013 07:52 0,9 C 0,1 C 93 % 1027,8 hPa 0,0 l/m 0 min 0 min 0,0 UV-I 5 W/m 0,0 km/h (0 Bft)
28.02.2013 07:54 0,9 C 0,1 C 93 % 1027,8 hPa 0,0 l/m 0 min 0 min 0,0 UV-I 7 W/m 0,0 km/h (0 Bft)
28.02.2013 07:56 0,9 C 0,1 C 93 % 1027,8 hPa 0,0 l/m 0 min 0 min 0,0 UV-I 7 W/m 0,0 km/h (0 Bft)
28.02.2013 07:58 0,9 C 0,1 C 93 % 1027,9 hPa 0,0 l/m 0 min 0 min 0,0 UV-I 7 W/m 0,0 km/h (0 Bft)
28.02.2013 08:00 0,9 C 0,1 C 93 % 1027,9 hPa 0,0 l/m 0 min 0 min 0,0 UV-I 7 W/m 0,0 km/h (0 Bft)
28.02.2013 08:02 1,0 C 0,1 C 93 % 1027,9 hPa 0,0 l/m 0 min 0 min 0,0 UV-I 7 W/m 0,0 km/h (0 Bft)
28.02.2013 08:04 1,0 C 0,1 C 93 % 1027,9 hPa 0,0 l/m 0 min 0 min 0,0 UV-I 7 W/m 0,0 km/h (0 Bft)
28.02.2013 08:06 1,0 C 0,1 C 93 % 1028,0 hPa 0,0 l/m 0 min 0 min 0,0 UV-I 7 W/m 0,0 km/h (0 Bft)
28.02.2013 08:08 1,0 C 0,1 C 93 % 1027,9 hPa 0,0 l/m 0 min 0 min 0,0 UV-I 9 W/m 0,0 km/h (0 Bft)
28.02.2013 08:10 1,0 C 0,1 C 93 % 1027,9 hPa 0,0 l/m 0 min 0 min 0,0 UV-I 9 W/m 0,0 km/h (0 Bft)
28.02.2013 08:12 1,0 C 0,1 C 93 % 1028,0 hPa 0,0 l/m 0 min 0 min 0,0 UV-I 11 W/m 0,0 km/h (0 Bft)
28.02.2013 08:14 1,0 C 0,1 C 93 % 1028,0 hPa 0,0 l/m 0 min 0 min 0,0 UV-I 11 W/m 0,0 km/h (0 Bft)
28.02.2013 08:16 1,0 C 0,1 C 93 % 1028,0 hPa 0,0 l/m 0 min 0 min 0,0 UV-I 11 W/m 5,1 km/h (1 Bft)
28.02.2013 08:18 1,0 C 0,1 C 93 % 1028,0 hPa 0,0 l/m 0 min 0 min 0,0 UV-I 12 W/m 5,1 km/h (1 Bft)
28.02.2013 08:20 1,0 C 0,1 C 93 % 1028,0 hPa 0,0 l/m 0 min 0 min 0,0 UV-I 12 W/m 0,0 km/h (0 Bft)
28.02.2013 08:22 1,0 C 0,1 C 93 % 1028,0 hPa 0,0 l/m 0 min 0 min 0,0 UV-I 12 W/m 0,0 km/h (0 Bft)
28.02.2013 08:24 1,0 C 0,1 C 93 % 1028,1 hPa 0,0 l/m 0 min 0 min 0,0 UV-I 14 W/m 0,0 km/h (0 Bft)
28.02.2013 08:26 1,0 C 0,1 C 93 % 1028,1 hPa 0,0 l/m 0 min 0 min 0,0 UV-I 14 W/m 0,0 km/h (0 Bft)
28.02.2013 08:28 1,0 C 0,1 C 93 % 1028,1 hPa 0,0 l/m 0 min 0 min 0,0 UV-I 16 W/m 0,0 km/h (0 Bft)
28.02.2013 08:30 1,1 C 0,1 C 93 % 1028,1 hPa 0,0 l/m 0 min 0 min 0,0 UV-I 18 W/m 0,0 km/h (0 Bft)
28.02.2013 08:32 1,1 C 0,1 C 93 % 1028,0 hPa 0,0 l/m 0 min 0 min 0,0 UV-I 18 W/m 2,6 km/h (1 Bft)
28.02.2013 08:34 1,1 C 0,1 C 93 % 1028,0 hPa 0,0 l/m 0 min 0 min 0,0 UV-I 18 W/m 0,0 km/h (0 Bft)
28.02.2013 08:36 1,1 C 0,1 C 93 % 1028,0 hPa 0,0 l/m 0 min 0 min 0,0 UV-I 21 W/m 0,0 km/h (0 Bft)
28.02.2013 08:38 1,1 C 0,1 C 93 % 1028,0 hPa 0,0 l/m 0 min 0 min 0,0 UV-I 21 W/m 0,0 km/h (0 Bft)
28.02.2013 08:40 1,1 C 0,1 C 93 % 1028,0 hPa 0,0 l/m 0 min 0 min 0,0 UV-I 23 W/m 0,0 km/h (0 Bft)
28.02.2013 08:42 1,1 C 0,1 C 93 % 1028,0 hPa 0,0 l/m 0 min 0 min 0,0 UV-I 25 W/m 0,0 km/h (0 Bft)
28.02.2013 08:44 1,1 C 0,7 C 93 % 1028,1 hPa 0,0 l/m 0 min 0 min 0,0 UV-I 25 W/m 2,6 km/h (1 Bft)
28.02.2013 08:46 1,1 C 0,7 C 93 % 1028,1 hPa 0,0 l/m 0 min 0 min 0,0 UV-I 25 W/m 0,0 km/h (0 Bft)
28.02.2013 08:48 1,1 C 0,7 C 93 % 1028,0 hPa 0,0 l/m 0 min 0 min 0,0 UV-I 25 W/m 0,0 km/h (0 Bft)
28.02.2013 08:50 1,2 C 0,7 C 93 % 1028,0 hPa 0,0 l/m 0 min 0 min 0,0 UV-I 26 W/m 0,0 km/h (0 Bft)
28.02.2013 08:52 1,1 C 0,7 C 93 % 1028,0 hPa 0,0 l/m 0 min 0 min 0,0 UV-I 28 W/m 0,0 km/h (0 Bft)
28.02.2013 08:54 1,2 C 0,7 C 93 % 1028,1 hPa 0,0 l/m 0 min 0 min 0,0 UV-I 28 W/m 0,0 km/h (0 Bft)
28.02.2013 08:56 1,2 C 0,7 C 93 % 1028,0 hPa 0,0 l/m 0 min 0 min 0,0 UV-I 28 W/m 2,6 km/h (1 Bft)
28.02.2013 08:58 1,2 C 0,7 C 93 % 1028,1 hPa 0,0 l/m 0 min 0 min 0,0 UV-I 28 W/m 0,0 km/h (0 Bft)
28.02.2013 09:00 1,2 C 0,7 C 93 % 1028,1 hPa 0,0 l/m 0 min 0 min 0,0 UV-I 30 W/m 0,0 km/h (0 Bft)
28.02.2013 09:02 1,2 C 0,7 C 93 % 1028,2 hPa 0,0 l/m 0 min 0 min 0,0 UV-I 32 W/m 0,0 km/h (0 Bft)
28.02.2013 09:04 1,3 C 0,7 C 93 % 1028,1 hPa 0,0 l/m 0 min 0 min 0,0 UV-I 30 W/m 0,0 km/h (0 Bft)
28.02.2013 09:06 1,2 C 0,7 C 93 % 1028,1 hPa 0,0 l/m 0 min 0 min 0,0 UV-I 32 W/m 0,0 km/h (0 Bft)
28.02.2013 09:08 1,3 C 0,7 C 93 % 1028,1 hPa 0,0 l/m 0 min 0 min 0,0 UV-I 32 W/m 0,0 km/h (0 Bft)
28.02.2013 09:10 1,3 C 0,7 C 93 % 1028,0 hPa 0,0 l/m 0 min 0 min 0,0 UV-I 35 W/m 0,0 km/h (0 Bft)
28.02.2013 09:12 1,3 C 0,7 C 93 % 1028,1 hPa 0,0 l/m 0 min 0 min 0,0 UV-I 39 W/m 0,0 km/h (0 Bft)
28.02.2013 09:14 1,3 C 1,2 C 93 % 1028,0 hPa 0,0 l/m 0 min 0 min 0,0 UV-I 42 W/m 0,0 km/h (0 Bft)
28.02.2013 09:16 1,3 C 1,2 C 93 % 1028,1 hPa 0,0 l/m 0 min 0 min 0,0 UV-I 46 W/m 0,0 km/h (0 Bft)
28.02.2013 09:18 1,3 C 1,2 C 93 % 1028,2 hPa 0,0 l/m 0 min 0 min 0,0 UV-I 47 W/m 0,0 km/h (0 Bft)
28.02.2013 09:20 1,3 C 1,2 C 93 % 1028,1 hPa 0,0 l/m 0 min 0 min 0,0 UV-I 49 W/m 0,0 km/h (0 Bft)
28.02.2013 09:22 1,3 C 1,2 C 93 % 1028,1 hPa 0,0 l/m 0 min 0 min 0,0 UV-I 49 W/m 0,0 km/h (0 Bft)
28.02.2013 09:24 1,3 C 1,2 C 93 % 1028,0 hPa 0,0 l/m 0 min 0 min 0,0 UV-I 49 W/m 2,6 km/h (1 Bft)
28.02.2013 09:26 1,3 C 1,2 C 93 % 1028,1 hPa 0,0 l/m 0 min 0 min 0,0 UV-I 46 W/m 0,0 km/h (0 Bft)
28.02.2013 09:28 1,4 C 1,2 C 93 % 1028,0 hPa 0,0 l/m 0 min 0 min 0,0 UV-I 47 W/m 0,0 km/h (0 Bft)
28.02.2013 09:30 1,4 C 1,2 C 93 % 1028,0 hPa 0,0 l/m 0 min 0 min 0,0 UV-I 47 W/m 0,0 km/h (0 Bft)
28.02.2013 09:32 1,4 C 1,2 C 93 % 1028,0 hPa 0,0 l/m 0 min 0 min 0,0 UV-I 49 W/m 0,0 km/h (0 Bft)
28.02.2013 09:34 1,4 C 1,2 C 93 % 1028,1 hPa 0,0 l/m 0 min 0 min 0,0 UV-I 53 W/m 2,6 km/h (1 Bft)
28.02.2013 09:36 1,5 C 1,2 C 93 % 1028,1 hPa 0,0 l/m 0 min 0 min 0,0 UV-I 53 W/m 5,1 km/h (1 Bft)
28.02.2013 09:38 1,5 C 1,2 C 92 % 1028,1 hPa 0,0 l/m 0 min 0 min 0,0 UV-I 53 W/m 0,0 km/h (0 Bft)
28.02.2013 09:40 1,6 C 1,2 C 92 % 1028,1 hPa 0,0 l/m 0 min 0 min 0,0 UV-I 49 W/m 2,6 km/h (1 Bft)
28.02.2013 09:42 1,6 C 1,2 C 92 % 1028,1 hPa 0,0 l/m 0 min 0 min 0,0 UV-I 47 W/m 0,0 km/h (0 Bft)
28.02.2013 09:44 1,6 C 1,2 C 92 % 1028,1 hPa 0,0 l/m 0 min 0 min 0,0 UV-I 49 W/m 0,0 km/h (0 Bft)
28.02.2013 09:46 1,6 C 1,2 C 92 % 1028,1 hPa 0,0 l/m 0 min 0 min 0,0 UV-I 49 W/m 0,0 km/h (0 Bft)
28.02.2013 09:48 1,6 C 1,2 C 92 % 1028,1 hPa 0,0 l/m 0 min 0 min 0,0 UV-I 51 W/m 0,0 km/h (0 Bft)
28.02.2013 09:50 1,7 C 1,2 C 92 % 1028,1 hPa 0,0 l/m 0 min 0 min 0,0 UV-I 53 W/m 5,1 km/h (1 Bft)
28.02.2013 09:52 1,7 C 1,2 C 92 % 1028,2 hPa 0,0 l/m 0 min 0 min 0,0 UV-I 56 W/m 5,1 km/h (1 Bft)
28.02.2013 09:54 1,7 C 1,2 C 92 % 1028,2 hPa 0,0 l/m 0 min 0 min 0,0 UV-I 56 W/m 0,0 km/h (0 Bft)
28.02.2013 09:56 1,7 C 1,2 C 92 % 1028,1 hPa 0,0 l/m 0 min 0 min 0,0 UV-I 53 W/m 2,6 km/h (1 Bft)
28.02.2013 09:58 1,7 C 1,2 C 92 % 1028,1 hPa 0,0 l/m 0 min 0 min 0,0 UV-I 53 W/m 0,0 km/h (0 Bft)
28.02.2013 10:00 1,7 C 1,2 C 91 % 1028,1 hPa 0,0 l/m 0 min 0 min 0,0 UV-I 51 W/m 0,0 km/h (0 Bft)
28.02.2013 10:02 1,8 C 1,2 C 91 % 1028,1 hPa 0,0 l/m 0 min 0 min 0,0 UV-I 53 W/m 2,6 km/h (1 Bft)
28.02.2013 10:04 1,8 C 1,2 C 92 % 1028,1 hPa 0,0 l/m 0 min 0 min 0,0 UV-I 54 W/m 0,0 km/h (0 Bft)
28.02.2013 10:06 1,8 C 1,2 C 91 % 1028,1 hPa 0,0 l/m 0 min 0 min 0,0 UV-I 53 W/m 2,6 km/h (1 Bft)
28.02.2013 10:08 1,8 C 1,2 C 91 % 1028,2 hPa 0,0 l/m 0 min 0 min 0,0 UV-I 53 W/m 0,0 km/h (0 Bft)
28.02.2013 10:10 1,8 C 1,2 C 91 % 1028,2 hPa 0,0 l/m 0 min 0 min 0,0 UV-I 58 W/m 7,7 km/h (2 Bft)
28.02.2013 10:12 1,8 C 1,2 C 91 % 1028,2 hPa 0,0 l/m 0 min 0 min 0,0 UV-I 63 W/m 7,7 km/h (2 Bft)
28.02.2013 10:14 1,8 C 1,2 C 91 % 1028,2 hPa 0,0 l/m 0 min 0 min 0,0 UV-I 65 W/m 5,1 km/h (1 Bft)
28.02.2013 10:16 1,9 C 1,8 C 91 % 1028,1 hPa 0,0 l/m 0 min 0 min 0,0 UV-I 69 W/m 0,0 km/h (0 Bft)
28.02.2013 10:18 1,9 C 1,8 C 91 % 1028,1 hPa 0,0 l/m 0 min 0 min 0,0 UV-I 69 W/m 2,6 km/h (1 Bft)
28.02.2013 10:20 1,9 C 1,8 C 91 % 1028,1 hPa 0,0 l/m 0 min 0 min 0,0 UV-I 69 W/m 5,1 km/h (1 Bft)
28.02.2013 10:22 1,9 C 1,8 C 91 % 1028,1 hPa 0,0 l/m 0 min 0 min 0,0 UV-I 77 W/m 0,0 km/h (0 Bft)
28.02.2013 10:24 1,9 C 1,8 C 91 % 1028,1 hPa 0,0 l/m 0 min 0 min 0,0 UV-I 86 W/m 10,3 km/h (2 Bft)
28.02.2013 10:26 1,9 C 1,8 C 91 % 1028,2 hPa 0,0 l/m 0 min 0 min 0,0 UV-I 90 W/m 10,3 km/h (2 Bft)
28.02.2013 10:28 2,0 C 1,8 C 91 % 1028,2 hPa 0,0 l/m 0 min 0 min 0,0 UV-I 91 W/m 7,7 km/h (2 Bft)
28.02.2013 10:30 2,0 C 1,8 C 91 % 1028,1 hPa 0,0 l/m 0 min 0 min 0,0 UV-I 93 W/m 10,3 km/h (2 Bft)
28.02.2013 10:32 2,0 C 1,8 C 91 % 1028,1 hPa 0,0 l/m 0 min 0 min 0,0 UV-I 98 W/m 7,7 km/h (2 Bft)
28.02.2013 10:34 2,0 C 1,8 C 91 % 1028,1 hPa 0,0 l/m 0 min 0 min 0,0 UV-I 102 W/m 2,6 km/h (1 Bft)
28.02.2013 10:36 2,1 C 1,8 C 91 % 1028,1 hPa 0,0 l/m 0 min 0 min 0,0 UV-I 105 W/m 7,7 km/h (2 Bft)
28.02.2013 10:38 2,1 C 1,8 C 91 % 1028,1 hPa 0,0 l/m 0 min 0 min 0,0 UV-I 105 W/m 7,7 km/h (2 Bft)
28.02.2013 10:40 2,1 C 1,8 C 90 % 1028,1 hPa 0,0 l/m 0 min 0 min 0,0 UV-I 109 W/m 7,7 km/h (2 Bft)
28.02.2013 10:42 2,2 C 1,8 C 90 % 1028,2 hPa 0,0 l/m 0 min 0 min 0,0 UV-I 107 W/m 5,1 km/h (1 Bft)
28.02.2013 10:44 2,2 C 2,3 C 90 % 1028,1 hPa 0,0 l/m 0 min 0 min 0,0 UV-I 114 W/m 0,0 km/h (0 Bft)
28.02.2013 10:46 2,2 C 2,3 C 90 % 1028,2 hPa 0,0 l/m 0 min 0 min 0,0 UV-I 111 W/m 10,3 km/h (2 Bft)
28.02.2013 10:48 2,2 C 2,3 C 90 % 1028,1 hPa 0,0 l/m 0 min 0 min 0,0 UV-I 107 W/m 7,7 km/h (2 Bft)
28.02.2013 10:50 2,3 C 2,3 C 90 % 1028,1 hPa 0,0 l/m 0 min 0 min 0,0 UV-I 111 W/m 7,7 km/h (2 Bft)
28.02.2013 10:52 2,3 C 2,3 C 90 % 1028,1 hPa 0,0 l/m 0 min 0 min 0,0 UV-I 107 W/m 5,1 km/h (1 Bft)
28.02.2013 10:54 2,3 C 2,3 C 90 % 1028,1 hPa 0,0 l/m 0 min 0 min 0,0 UV-I 116 W/m 5,1 km/h (1 Bft)
28.02.2013 10:56 2,3 C 2,3 C 90 % 1028,1 hPa 0,0 l/m 0 min 0 min 0,0 UV-I 123 W/m 2,6 km/h (1 Bft)
28.02.2013 10:58 2,4 C 2,3 C 90 % 1028,1 hPa 0,0 l/m 0 min 0 min 0,0 UV-I 120 W/m 7,7 km/h (2 Bft)
28.02.2013 11:00 2,4 C 2,3 C 90 % 1028,1 hPa 0,0 l/m 0 min 0 min 0,0 UV-I 116 W/m 0,0 km/h (0 Bft)
28.02.2013 11:02 2,4 C 2,3 C 90 % 1028,2 hPa 0,0 l/m 0 min 0 min 0,0 UV-I 120 W/m 5,1 km/h (1 Bft)
28.02.2013 11:04 2,4 C 2,3 C 90 % 1028,2 hPa 0,0 l/m 0 min 0 min 0,0 UV-I 128 W/m 10,3 km/h (2 Bft)
28.02.2013 11:06 2,5 C 2,3 C 90 % 1028,2 hPa 0,0 l/m 0 min 0 min 0,0 UV-I 130 W/m 5,1 km/h (1 Bft)
28.02.2013 11:08 2,5 C 2,3 C 90 % 1028,2 hPa 0,0 l/m 0 min 0 min 0,0 UV-I 130 W/m 12,9 km/h (3 Bft)
28.02.2013 11:10 2,6 C 2,3 C 89 % 1028,1 hPa 0,0 l/m 0 min 0 min 0,0 UV-I 128 W/m 10,3 km/h (2 Bft)
28.02.2013 11:12 2,6 C 2,3 C 89 % 1028,1 hPa 0,0 l/m 0 min 0 min 0,0 UV-I 137 W/m 7,7 km/h (2 Bft)
28.02.2013 11:14 2,6 C 2,9 C 90 % 1028,1 hPa 0,0 l/m 0 min 0 min 0,0 UV-I 132 W/m 7,7 km/h (2 Bft)
28.02.2013 11:16 2,6 C 2,9 C 90 % 1028,2 hPa 0,0 l/m 0 min 0 min 0,0 UV-I 137 W/m 7,7 km/h (2 Bft)
28.02.2013 11:18 2,7 C 2,9 C 89 % 1028,1 hPa 0,0 l/m 0 min 0 min 0,0 UV-I 151 W/m 7,7 km/h (2 Bft)
28.02.2013 11:20 2,7 C 2,9 C 89 % 1028,2 hPa 0,0 l/m 0 min 0 min 0,0 UV-I 146 W/m 5,1 km/h (1 Bft)
28.02.2013 11:22 2,7 C 2,9 C 90 % 1028,2 hPa 0,0 l/m 0 min 0 min 0,0 UV-I 137 W/m 5,1 km/h (1 Bft)
28.02.2013 11:24 2,8 C 2,9 C 90 % 1028,2 hPa 0,0 l/m 0 min 0 min 0,0 UV-I 146 W/m 2,6 km/h (1 Bft)
28.02.2013 11:26 2,8 C 2,9 C 89 % 1028,2 hPa 0,0 l/m 0 min 0 min 0,0 UV-I 144 W/m 10,3 km/h (2 Bft)
28.02.2013 11:28 2,8 C 2,9 C 89 % 1028,2 hPa 0,0 l/m 0 min 0 min 0,0 UV-I 141 W/m 7,7 km/h (2 Bft)
28.02.2013 11:30 2,8 C 2,9 C 89 % 1028,2 hPa 0,0 l/m 0 min 0 min 0,0 UV-I 139 W/m 15,4 km/h (3 Bft)
28.02.2013 11:32 2,8 C 2,9 C 88 % 1028,2 hPa 0,0 l/m 0 min 0 min 0,0 UV-I 132 W/m 12,9 km/h (3 Bft)
28.02.2013 11:34 2,8 C 2,9 C 88 % 1028,0 hPa 0,0 l/m 0 min 0 min 0,0 UV-I 141 W/m 2,6 km/h (1 Bft)
28.02.2013 11:36 2,9 C 2,9 C 89 % 1028,0 hPa 0,0 l/m 0 min 0 min 0,0 UV-I 153 W/m 2,6 km/h (1 Bft)
28.02.2013 11:38 2,9 C 2,9 C 88 % 1028,0 hPa 0,0 l/m 0 min 0 min 0,0 UV-I 155 W/m 5,1 km/h (1 Bft)
28.02.2013 11:40 2,9 C 2,9 C 88 % 1028,1 hPa 0,0 l/m 0 min 0 min 0,0 UV-I 160 W/m 10,3 km/h (2 Bft)
28.02.2013 11:42 2,9 C 2,9 C 88 % 1028,1 hPa 0,0 l/m 0 min 0 min 0,0 UV-I 172 W/m 7,7 km/h (2 Bft)
28.02.2013 11:44 3,0 C 3,4 C 88 % 1028,0 hPa 0,0 l/m 0 min 0 min 0,0 UV-I 178 W/m 7,7 km/h (2 Bft)
28.02.2013 11:46 3,1 C 3,4 C 88 % 1028,0 hPa 0,0 l/m 0 min 0 min 0,0 UV-I 178 W/m 5,1 km/h (1 Bft)
28.02.2013 11:48 3,1 C 3,4 C 88 % 1028,0 hPa 0,0 l/m 0 min 0 min 0,0 UV-I 172 W/m 7,7 km/h (2 Bft)
28.02.2013 11:50 3,1 C 3,4 C 88 % 1028,0 hPa 0,0 l/m 0 min 0 min 0,0 UV-I 172 W/m 7,7 km/h (2 Bft)
28.02.2013 11:52 3,2 C 3,4 C 88 % 1028,0 hPa 0,0 l/m 0 min 0 min 0,0 UV-I 171 W/m 10,3 km/h (2 Bft)
28.02.2013 11:54 3,2 C 3,4 C 88 % 1028,0 hPa 0,0 l/m 0 min 0 min 0,0 UV-I 176 W/m 0,0 km/h (0 Bft)
28.02.2013 11:56 3,2 C 4,0 C 88 % 1028,0 hPa 0,0 l/m 0 min 0 min 0,0 UV-I 181 W/m 7,7 km/h (2 Bft)
28.02.2013 11:58 3,3 C 4,0 C 88 % 1027,9 hPa 0,0 l/m 0 min 0 min 0,0 UV-I 188 W/m 7,7 km/h (2 Bft)
28.02.2013 12:00 3,3 C 4,6 C 88 % 1027,9 hPa 0,0 l/m 0 min 0 min 0,0 UV-I 186 W/m 0,0 km/h (0 Bft)
28.02.2013 12:02 3,4 C 4,0 C 88 % 1027,9 hPa 0,0 l/m 0 min 0 min 0,0 UV-I 193 W/m 0,0 km/h (0 Bft)
28.02.2013 12:04 3,4 C 4,0 C 87 % 1027,9 hPa 0,0 l/m 0 min 0 min 0,0 UV-I 195 W/m 10,3 km/h (2 Bft)
28.02.2013 12:06 3,5 C 4,0 C 87 % 1027,9 hPa 0,0 l/m 0 min 0 min 0,0 UV-I 200 W/m 10,3 km/h (2 Bft)
28.02.2013 12:08 3,5 C 4,0 C 87 % 1027,9 hPa 0,0 l/m 0 min 0 min 0,0 UV-I 206 W/m 5,1 km/h (1 Bft)
28.02.2013 12:10 3,5 C 4,0 C 86 % 1027,9 hPa 0,0 l/m 0 min 0 min 0,0 UV-I 193 W/m 7,7 km/h (2 Bft)
28.02.2013 12:12 3,6 C 4,0 C 86 % 1027,9 hPa 0,0 l/m 0 min 0 min 0,0 UV-I 193 W/m 7,7 km/h (2 Bft)
28.02.2013 12:14 3,6 C 4,0 C 86 % 1027,9 hPa 0,0 l/m 0 min 0 min 0,0 UV-I 193 W/m 10,3 km/h (2 Bft)
28.02.2013 12:16 3,6 C 4,0 C 85 % 1027,8 hPa 0,0 l/m 0 min 0 min 0,0 UV-I 186 W/m 7,7 km/h (2 Bft)
28.02.2013 12:18 3,6 C 4,0 C 85 % 1027,8 hPa 0,0 l/m 0 min 0 min 0,0 UV-I 188 W/m 5,1 km/h (1 Bft)
28.02.2013 12:20 3,7 C 4,6 C 86 % 1027,8 hPa 0,0 l/m 0 min 0 min 0,0 UV-I 178 W/m 7,7 km/h (2 Bft)
28.02.2013 12:22 3,7 C 4,0 C 85 % 1027,8 hPa 0,0 l/m 0 min 0 min 0,0 UV-I 171 W/m 5,1 km/h (1 Bft)
28.02.2013 12:24 3,8 C 4,0 C 85 % 1027,8 hPa 0,0 l/m 0 min 0 min 0,0 UV-I 195 W/m 7,7 km/h (2 Bft)
28.02.2013 12:26 3,8 C 4,0 C 85 % 1027,7 hPa 0,0 l/m 0 min 0 min 0,0 UV-I 197 W/m 7,7 km/h (2 Bft)
28.02.2013 12:28 3,8 C 4,0 C 85 % 1027,7 hPa 0,0 l/m 0 min 0 min 0,0 UV-I 202 W/m 7,7 km/h (2 Bft)
28.02.2013 12:30 3,8 C 4,0 C 85 % 1027,7 hPa 0,0 l/m 0 min 0 min 0,0 UV-I 207 W/m 7,7 km/h (2 Bft)
28.02.2013 12:32 3,8 C 4,6 C 85 % 1027,7 hPa 0,0 l/m 0 min 0 min 0,0 UV-I 209 W/m 10,3 km/h (2 Bft)
28.02.2013 12:34 3,9 C 4,6 C 85 % 1027,7 hPa 0,0 l/m 0 min 0 min 0,0 UV-I 202 W/m 7,7 km/h (2 Bft)
28.02.2013 12:36 3,9 C 4,6 C 85 % 1027,7 hPa 0,0 l/m 0 min 0 min 0,0 UV-I 195 W/m 7,7 km/h (2 Bft)
28.02.2013 12:38 3,9 C 4,6 C 85 % 1027,7 hPa 0,0 l/m 0 min 0 min 0,0 UV-I 197 W/m 10,3 km/h (2 Bft)
28.02.2013 12:40 3,9 C 4,6 C 85 % 1027,7 hPa 0,0 l/m 0 min 0 min 0,0 UV-I 199 W/m 0,0 km/h (0 Bft)
28.02.2013 12:42 4,0 C 4,6 C 85 % 1027,6 hPa 0,0 l/m 0 min 0 min 0,0 UV-I 207 W/m 10,3 km/h (2 Bft)
28.02.2013 12:44 4,1 C 4,6 C 85 % 1027,5 hPa 0,0 l/m 0 min 0 min 0,0 UV-I 211 W/m 7,7 km/h (2 Bft)
28.02.2013 12:46 4,1 C 4,6 C 84 % 1027,6 hPa 0,0 l/m 0 min 0 min 0,0 UV-I 206 W/m 7,7 km/h (2 Bft)
28.02.2013 12:48 4,1 C 4,6 C 84 % 1027,6 hPa 0,0 l/m 0 min 0 min 0,0 UV-I 195 W/m 7,7 km/h (2 Bft)
28.02.2013 12:50 4,2 C 4,6 C 85 % 1027,6 hPa 0,0 l/m 0 min 0 min 0,0 UV-I 197 W/m 5,1 km/h (1 Bft)
28.02.2013 12:52 4,2 C 4,6 C 84 % 1027,6 hPa 0,0 l/m 0 min 0 min 0,0 UV-I 192 W/m 10,3 km/h (2 Bft)
28.02.2013 12:54 4,2 C 4,6 C 84 % 1027,5 hPa 0,0 l/m 0 min 0 min 0,0 UV-I 199 W/m 0,0 km/h (0 Bft)
28.02.2013 12:56 4,2 C 4,6 C 84 % 1027,5 hPa 0,0 l/m 0 min 0 min 0,0 UV-I 199 W/m 10,3 km/h (2 Bft)
28.02.2013 12:58 4,2 C 4,6 C 84 % 1027,5 hPa 0,0 l/m 0 min 0 min 0,0 UV-I 193 W/m 12,9 km/h (3 Bft)
28.02.2013 13:00 4,2 C 4,0 C 83 % 1027,5 hPa 0,0 l/m 0 min 0 min 0,0 UV-I 193 W/m 12,9 km/h (3 Bft)
28.02.2013 13:02 4,3 C 4,6 C 84 % 1027,5 hPa 0,0 l/m 0 min 0 min 0,0 UV-I 193 W/m 7,7 km/h (2 Bft)
28.02.2013 13:04 4,3 C 4,6 C 84 % 1027,4 hPa 0,0 l/m 0 min 0 min 0,0 UV-I 193 W/m 7,7 km/h (2 Bft)
28.02.2013 13:06 4,3 C 4,6 C 84 % 1027,4 hPa 0,0 l/m 0 min 0 min 0,0 UV-I 197 W/m 2,6 km/h (1 Bft)
28.02.2013 13:08 4,3 C 4,6 C 84 % 1027,4 hPa 0,0 l/m 0 min 0 min 0,0 UV-I 190 W/m 10,3 km/h (2 Bft)
28.02.2013 13:10 4,3 C 4,6 C 84 % 1027,4 hPa 0,0 l/m 0 min 0 min 0,0 UV-I 200 W/m 10,3 km/h (2 Bft)
28.02.2013 13:12 4,4 C 4,6 C 84 % 1027,4 hPa 0,0 l/m 0 min 0 min 0,0 UV-I 197 W/m 0,0 km/h (0 Bft)
28.02.2013 13:14 4,4 C 4,6 C 83 % 1027,4 hPa 0,0 l/m 0 min 0 min 0,0 UV-I 193 W/m 12,9 km/h (3 Bft)
28.02.2013 13:16 4,4 C 4,6 C 84 % 1027,4 hPa 0,0 l/m 0 min 0 min 0,0 UV-I 202 W/m 7,7 km/h (2 Bft)
28.02.2013 13:18 4,4 C 4,6 C 83 % 1027,4 hPa 0,0 l/m 0 min 0 min 0,0 UV-I 211 W/m 7,7 km/h (2 Bft)
28.02.2013 13:20 4,4 C 4,6 C 83 % 1027,3 hPa 0,0 l/m 0 min 0 min 0,0 UV-I 225 W/m 0,0 km/h (0 Bft)
28.02.2013 13:22 4,4 C 4,6 C 83 % 1027,3 hPa 0,0 l/m 0 min 0 min 0,5 UV-I 232 W/m 7,7 km/h (2 Bft)
28.02.2013 13:24 4,5 C 5,1 C 83 % 1027,3 hPa 0,0 l/m 0 min 0 min 0,5 UV-I 232 W/m 10,3 km/h (2 Bft)
28.02.2013 13:26 4,5 C 5,1 C 84 % 1027,3 hPa 0,0 l/m 0 min 0 min 0,0 UV-I 227 W/m 7,7 km/h (2 Bft)
28.02.2013 13:28 4,6 C 5,1 C 83 % 1027,3 hPa 0,0 l/m 0 min 0 min 0,0 UV-I 216 W/m 7,7 km/h (2 Bft)
28.02.2013 13:30 4,6 C 5,1 C 83 % 1027,3 hPa 0,0 l/m 0 min 0 min 0,0 UV-I 214 W/m 7,7 km/h (2 Bft)
28.02.2013 13:32 4,7 C 4,6 C 83 % 1027,2 hPa 0,0 l/m 0 min 0 min 0,0 UV-I 214 W/m 12,9 km/h (3 Bft)
28.02.2013 13:34 4,7 C 4,6 C 83 % 1027,1 hPa 0,0 l/m 0 min 0 min 0,0 UV-I 214 W/m 7,7 km/h (2 Bft)
28.02.2013 13:36 4,7 C 4,6 C 82 % 1027,2 hPa 0,0 l/m 0 min 0 min 0,0 UV-I 221 W/m 10,3 km/h (2 Bft)
28.02.2013 13:38 4,7 C 5,1 C 83 % 1027,1 hPa 0,0 l/m 0 min 0 min 0,5 UV-I 237 W/m 0,0 km/h (0 Bft)
28.02.2013 13:40 4,7 C 5,1 C 83 % 1027,2 hPa 0,0 l/m 0 min 0 min 0,5 UV-I 244 W/m 0,0 km/h (0 Bft)
28.02.2013 13:42 4,7 C 5,1 C 83 % 1027,2 hPa 0,0 l/m 0 min 0 min 0,5 UV-I 239 W/m 12,9 km/h (3 Bft)
28.02.2013 13:44 4,7 C 5,1 C 82 % 1027,2 hPa 0,0 l/m 0 min 0 min 0,0 UV-I 236 W/m 10,3 km/h (2 Bft)
28.02.2013 13:46 4,7 C 5,1 C 82 % 1027,1 hPa 0,0 l/m 0 min 0 min 0,5 UV-I 244 W/m 10,3 km/h (2 Bft)
28.02.2013 13:48 4,7 C 5,1 C 82 % 1027,1 hPa 0,0 l/m 0 min 0 min 0,0 UV-I 236 W/m 0,0 km/h (0 Bft)
28.02.2013 13:50 4,7 C 4,6 C 82 % 1027,1 hPa 0,0 l/m 0 min 0 min 0,0 UV-I 236 W/m 15,4 km/h (3 Bft)
28.02.2013 13:52 4,7 C 4,6 C 82 % 1027,1 hPa 0,0 l/m 0 min 0 min 0,0 UV-I 230 W/m 10,3 km/h (2 Bft)
28.02.2013 13:54 4,7 C 5,1 C 82 % 1027,1 hPa 0,0 l/m 0 min 0 min 0,0 UV-I 221 W/m 10,3 km/h (2 Bft)
28.02.2013 13:56 4,8 C 5,1 C 82 % 1027,1 hPa 0,0 l/m 0 min 0 min 0,0 UV-I 220 W/m 12,9 km/h (3 Bft)
28.02.2013 13:58 4,8 C 5,1 C 82 % 1027,1 hPa 0,0 l/m 0 min 0 min 0,0 UV-I 225 W/m 10,3 km/h (2 Bft)
28.02.2013 14:00 4,8 C 5,1 C 82 % 1027,2 hPa 0,0 l/m 0 min 0 min 0,0 UV-I 227 W/m 15,4 km/h (3 Bft)
28.02.2013 14:02 4,8 C 5,1 C 82 % 1027,1 hPa 0,0 l/m 0 min 0 min 0,0 UV-I 227 W/m 12,9 km/h (3 Bft)
28.02.2013 14:04 4,8 C 5,1 C 82 % 1027,1 hPa 0,0 l/m 0 min 0 min 0,0 UV-I 230 W/m 15,4 km/h (3 Bft)
28.02.2013 14:06 4,8 C 5,1 C 82 % 1027,1 hPa 0,0 l/m 0 min 0 min 0,0 UV-I 229 W/m 10,3 km/h (2 Bft)
28.02.2013 14:08 4,8 C 5,1 C 82 % 1027,1 hPa 0,0 l/m 0 min 0 min 0,0 UV-I 243 W/m 10,3 km/h (2 Bft)
28.02.2013 14:10 4,9 C 5,1 C 82 % 1027,1 hPa 0,0 l/m 0 min 0 min 0,0 UV-I 237 W/m 15,4 km/h (3 Bft)
28.02.2013 14:12 4,9 C 5,1 C 82 % 1027,1 hPa 0,0 l/m 0 min 0 min 0,0 UV-I 230 W/m 12,9 km/h (3 Bft)
28.02.2013 14:14 5,0 C 5,1 C 82 % 1027,0 hPa 0,0 l/m 0 min 0 min 0,0 UV-I 229 W/m 10,3 km/h (2 Bft)
28.02.2013 14:16 5,0 C 5,1 C 82 % 1027,0 hPa 0,0 l/m 0 min 0 min 0,0 UV-I 214 W/m 7,7 km/h (2 Bft)
28.02.2013 14:18 5,0 C 5,1 C 81 % 1027,1 hPa 0,0 l/m 0 min 0 min 0,0 UV-I 213 W/m 12,9 km/h (3 Bft)
28.02.2013 14:20 5,1 C 5,1 C 81 % 1027,0 hPa 0,0 l/m 0 min 0 min 0,0 UV-I 207 W/m 15,4 km/h (3 Bft)
28.02.2013 14:22 5,1 C 5,1 C 81 % 1027,0 hPa 0,0 l/m 0 min 0 min 0,0 UV-I 204 W/m 10,3 km/h (2 Bft)
28.02.2013 14:24 5,0 C 5,1 C 81 % 1027,0 hPa 0,0 l/m 0 min 0 min 0,0 UV-I 207 W/m 10,3 km/h (2 Bft)
28.02.2013 14:26 5,1 C 5,1 C 81 % 1027,0 hPa 0,0 l/m 0 min 0 min 0,0 UV-I 209 W/m 12,9 km/h (3 Bft)
28.02.2013 14:28 5,1 C 5,1 C 80 % 1027,0 hPa 0,0 l/m 0 min 0 min 0,0 UV-I 211 W/m 12,9 km/h (3 Bft)
28.02.2013 14:30 5,1 C 5,1 C 81 % 1027,0 hPa 0,0 l/m 0 min 0 min 0,0 UV-I 200 W/m 7,7 km/h (2 Bft)
28.02.2013 14:32 5,1 C 5,1 C 81 % 1027,0 hPa 0,0 l/m 0 min 0 min 0,0 UV-I 185 W/m 10,3 km/h (2 Bft)
28.02.2013 14:34 5,1 C 5,1 C 81 % 1027,0 hPa 0,0 l/m 0 min 0 min 0,0 UV-I 181 W/m 15,4 km/h (3 Bft)
28.02.2013 14:36 5,1 C 5,1 C 81 % 1026,9 hPa 0,0 l/m 0 min 0 min 0,0 UV-I 179 W/m 10,3 km/h (2 Bft)
28.02.2013 14:38 5,1 C 5,1 C 81 % 1026,9 hPa 0,0 l/m 0 min 0 min 0,0 UV-I 185 W/m 10,3 km/h (2 Bft)
28.02.2013 14:40 5,1 C 5,1 C 81 % 1026,9 hPa 0,0 l/m 0 min 0 min 0,0 UV-I 186 W/m 10,3 km/h (2 Bft)
28.02.2013 14:42 5,1 C 5,1 C 80 % 1026,9 hPa 0,0 l/m 0 min 0 min 0,0 UV-I 183 W/m 15,4 km/h (3 Bft)
28.02.2013 14:44 5,1 C 5,1 C 80 % 1026,9 hPa 0,0 l/m 0 min 0 min 0,0 UV-I 165 W/m 12,9 km/h (3 Bft)
28.02.2013 14:46 5,1 C 5,1 C 81 % 1026,9 hPa 0,0 l/m 0 min 0 min 0,0 UV-I 158 W/m 10,3 km/h (2 Bft)
28.02.2013 14:48 5,1 C 4,6 C 80 % 1026,9 hPa 0,0 l/m 0 min 0 min 0,0 UV-I 155 W/m 15,4 km/h (3 Bft)
28.02.2013 14:50 5,1 C 4,6 C 80 % 1026,8 hPa 0,0 l/m 0 min 0 min 0,0 UV-I 148 W/m 12,9 km/h (3 Bft)
28.02.2013 14:52 5,1 C 4,6 C 80 % 1026,8 hPa 0,0 l/m 0 min 0 min 0,0 UV-I 146 W/m 7,7 km/h (2 Bft)
28.02.2013 14:54 5,1 C 4,6 C 80 % 1026,8 hPa 0,0 l/m 0 min 0 min 0,0 UV-I 153 W/m 7,7 km/h (2 Bft)
28.02.2013 14:56 5,1 C 5,1 C 80 % 1026,8 hPa 0,0 l/m 0 min 0 min 0,0 UV-I 172 W/m 5,1 km/h (1 Bft)
28.02.2013 14:58 5,1 C 5,1 C 81 % 1026,8 hPa 0,0 l/m 0 min 0 min 0,0 UV-I 186 W/m 12,9 km/h (3 Bft)
28.02.2013 15:00 5,1 C 5,1 C 81 % 1026,8 hPa 0,0 l/m 0 min 0 min 0,0 UV-I 192 W/m 12,9 km/h (3 Bft)
28.02.2013 15:02 5,1 C 5,1 C 81 % 1026,7 hPa 0,0 l/m 0 min 0 min 0,0 UV-I 213 W/m 12,9 km/h (3 Bft)
28.02.2013 15:04 5,1 C 5,1 C 80 % 1026,8 hPa 0,0 l/m 0 min 0 min 0,0 UV-I 211 W/m 12,9 km/h (3 Bft)
28.02.2013 15:06 5,1 C 5,1 C 80 % 1026,8 hPa 0,0 l/m 0 min 0 min 0,0 UV-I 223 W/m 10,3 km/h (2 Bft)
28.02.2013 15:08 5,1 C 5,1 C 80 % 1026,7 hPa 0,0 l/m 2 min 0 min 0,0 UV-I 253 W/m 10,3 km/h (2 Bft)
28.02.2013 15:10 5,2 C 5,1 C 80 % 1026,7 hPa 0,0 l/m 2 min 0 min 0,0 UV-I 239 W/m 12,9 km/h (3 Bft)
28.02.2013 15:12 5,2 C 5,1 C 80 % 1026,6 hPa 0,0 l/m 0 min 0 min 0,0 UV-I 185 W/m 10,3 km/h (2 Bft)
28.02.2013 15:14 5,2 C 5,1 C 80 % 1026,7 hPa 0,0 l/m 0 min 0 min 0,0 UV-I 149 W/m 7,7 km/h (2 Bft)
28.02.2013 15:16 5,2 C 5,1 C 80 % 1026,7 hPa 0,0 l/m 0 min 0 min 0,0 UV-I 139 W/m 10,3 km/h (2 Bft)
28.02.2013 15:18 5,2 C 5,1 C 80 % 1026,7 hPa 0,0 l/m 0 min 0 min 0,0 UV-I 137 W/m 7,7 km/h (2 Bft)
28.02.2013 15:20 5,2 C 5,1 C 80 % 1026,6 hPa 0,0 l/m 0 min 0 min 0,0 UV-I 139 W/m 0,0 km/h (0 Bft)
28.02.2013 15:22 5,3 C 5,1 C 80 % 1026,6 hPa 0,0 l/m 0 min 0 min 0,0 UV-I 142 W/m 10,3 km/h (2 Bft)
28.02.2013 15:24 5,3 C 5,1 C 80 % 1026,5 hPa 0,0 l/m 0 min 0 min 0,0 UV-I 146 W/m 10,3 km/h (2 Bft)
28.02.2013 15:26 5,3 C 5,1 C 80 % 1026,5 hPa 0,0 l/m 0 min 0 min 0,0 UV-I 148 W/m 12,9 km/h (3 Bft)
28.02.2013 15:28 5,2 C 4,6 C 79 % 1026,5 hPa 0,0 l/m 0 min 0 min 0,0 UV-I 151 W/m 15,4 km/h (3 Bft)
28.02.2013 15:30 5,2 C 5,1 C 80 % 1026,5 hPa 0,0 l/m 0 min 0 min 0,0 UV-I 156 W/m 10,3 km/h (2 Bft)
28.02.2013 15:32 5,2 C 5,1 C 80 % 1026,5 hPa 0,0 l/m 0 min 0 min 0,0 UV-I 172 W/m 7,7 km/h (2 Bft)
28.02.2013 15:34 5,2 C 5,1 C 80 % 1026,5 hPa 0,0 l/m 0 min 0 min 0,0 UV-I 179 W/m 5,1 km/h (1 Bft)
28.02.2013 15:36 5,3 C 5,1 C 80 % 1026,5 hPa 0,0 l/m 0 min 0 min 0,0 UV-I 193 W/m 2,6 km/h (1 Bft)
28.02.2013 15:38 5,3 C 5,1 C 80 % 1026,5 hPa 0,0 l/m 2 min 0 min 0,0 UV-I 223 W/m 7,7 km/h (2 Bft)
28.02.2013 15:40 5,4 C 5,7 C 81 % 1026,4 hPa 0,0 l/m 2 min 0 min 0,0 UV-I 216 W/m 2,6 km/h (1 Bft)
28.02.2013 15:42 5,4 C 5,7 C 81 % 1026,4 hPa 0,0 l/m 2 min 0 min 0,0 UV-I 329 W/m 5,1 km/h (1 Bft)
28.02.2013 15:44 5,5 C 5,7 C 80 % 1026,4 hPa 0,0 l/m 2 min 0 min 0,0 UV-I 221 W/m 7,7 km/h (2 Bft)
28.02.2013 15:46 5,5 C 5,7 C 79 % 1026,4 hPa 0,0 l/m 0 min 0 min 0,0 UV-I 163 W/m 10,3 km/h (2 Bft)
28.02.2013 15:48 5,6 C 5,1 C 79 % 1026,3 hPa 0,0 l/m 0 min 0 min 0,0 UV-I 137 W/m 5,1 km/h (1 Bft)
28.02.2013 15:50 5,6 C 5,1 C 79 % 1026,3 hPa 0,0 l/m 0 min 0 min 0,0 UV-I 134 W/m 7,7 km/h (2 Bft)
28.02.2013 15:52 5,6 C 5,1 C 78 % 1026,3 hPa 0,0 l/m 0 min 0 min 0,0 UV-I 128 W/m 10,3 km/h (2 Bft)
28.02.2013 15:54 5,6 C 5,1 C 78 % 1026,3 hPa 0,0 l/m 0 min 0 min 0,0 UV-I 109 W/m 0,0 km/h (0 Bft)
28.02.2013 15:56 5,6 C 5,1 C 78 % 1026,3 hPa 0,0 l/m 0 min 0 min 0,0 UV-I 97 W/m 0,0 km/h (0 Bft)
28.02.2013 15:58 5,6 C 5,1 C 78 % 1026,3 hPa 0,0 l/m 0 min 0 min 0,0 UV-I 86 W/m 2,6 km/h (1 Bft)
28.02.2013 16:00 5,6 C 5,1 C 78 % 1026,3 hPa 0,0 l/m 0 min 0 min 0,0 UV-I 76 W/m 2,6 km/h (1 Bft)
28.02.2013 16:02 5,6 C 5,1 C 78 % 1026,4 hPa 0,0 l/m 0 min 0 min 0,0 UV-I 70 W/m 10,3 km/h (2 Bft)
28.02.2013 16:04 5,6 C 4,6 C 78 % 1026,3 hPa 0,0 l/m 0 min 0 min 0,0 UV-I 67 W/m 10,3 km/h (2 Bft)
28.02.2013 16:06 5,6 C 4,6 C 78 % 1026,3 hPa 0,0 l/m 0 min 0 min 0,0 UV-I 63 W/m 5,1 km/h (1 Bft)
28.02.2013 16:08 5,5 C 4,6 C 77 % 1026,2 hPa 0,0 l/m 0 min 0 min 0,0 UV-I 63 W/m 0,0 km/h (0 Bft)
28.02.2013 16:10 5,5 C 4,6 C 77 % 1026,2 hPa 0,0 l/m 0 min 0 min 0,0 UV-I 63 W/m 0,0 km/h (0 Bft)
28.02.2013 16:12 5,5 C 4,6 C 78 % 1026,2 hPa 0,0 l/m 0 min 0 min 0,0 UV-I 60 W/m 10,3 km/h (2 Bft)
28.02.2013 16:14 5,4 C 4,6 C 78 % 1026,2 hPa 0,0 l/m 0 min 0 min 0,0 UV-I 58 W/m 0,0 km/h (0 Bft)
28.02.2013 16:16 5,4 C 4,6 C 78 % 1026,2 hPa 0,0 l/m 0 min 0 min 0,0 UV-I 58 W/m 2,6 km/h (1 Bft)
28.02.2013 16:18 5,4 C 4,6 C 78 % 1026,2 hPa 0,0 l/m 0 min 0 min 0,0 UV-I 54 W/m 2,6 km/h (1 Bft)
28.02.2013 16:20 5,4 C 4,6 C 78 % 1026,2 hPa 0,0 l/m 0 min 0 min 0,0 UV-I 53 W/m 10,3 km/h (2 Bft)
28.02.2013 16:22 5,4 C 4,6 C 78 % 1026,2 hPa 0,0 l/m 0 min 0 min 0,0 UV-I 51 W/m 5,1 km/h (1 Bft)
28.02.2013 16:24 5,3 C 4,6 C 78 % 1026,1 hPa 0,0 l/m 0 min 0 min 0,0 UV-I 51 W/m 5,1 km/h (1 Bft)
28.02.2013 16:26 5,3 C 4,6 C 77 % 1026,1 hPa 0,0 l/m 0 min 0 min 0,0 UV-I 51 W/m 0,0 km/h (0 Bft)
28.02.2013 16:28 5,3 C 4,6 C 78 % 1026,1 hPa 0,0 l/m 0 min 0 min 0,0 UV-I 53 W/m 7,7 km/h (2 Bft)
28.02.2013 16:30 5,3 C 4,0 C 78 % 1026,1 hPa 0,0 l/m 0 min 0 min 0,0 UV-I 51 W/m 5,1 km/h (1 Bft)
28.02.2013 16:32 5,3 C 4,6 C 78 % 1026,0 hPa 0,0 l/m 0 min 0 min 0,0 UV-I 49 W/m 5,1 km/h (1 Bft)
28.02.2013 16:34 5,3 C 4,0 C 78 % 1026,1 hPa 0,0 l/m 0 min 0 min 0,0 UV-I 51 W/m 2,6 km/h (1 Bft)
28.02.2013 16:36 5,2 C 4,0 C 79 % 1026,0 hPa 0,0 l/m 0 min 0 min 0,0 UV-I 47 W/m 5,1 km/h (1 Bft)
28.02.2013 16:38 5,2 C 4,0 C 78 % 1026,0 hPa 0,0 l/m 0 min 0 min 0,0 UV-I 46 W/m 10,3 km/h (2 Bft)
28.02.2013 16:40 5,2 C 4,0 C 78 % 1026,0 hPa 0,0 l/m 0 min 0 min 0,0 UV-I 44 W/m 7,7 km/h (2 Bft)
28.02.2013 16:42 5,2 C 4,0 C 79 % 1026,0 hPa 0,0 l/m 0 min 0 min 0,0 UV-I 42 W/m 0,0 km/h (0 Bft)
28.02.2013 16:44 5,2 C 4,0 C 79 % 1026,0 hPa 0,0 l/m 0 min 0 min 0,0 UV-I 40 W/m 0,0 km/h (0 Bft)
28.02.2013 16:46 5,2 C 4,0 C 79 % 1026,0 hPa 0,0 l/m 0 min 0 min 0,0 UV-I 39 W/m 5,1 km/h (1 Bft)
28.02.2013 16:48 5,2 C 4,0 C 79 % 1026,0 hPa 0,0 l/m 0 min 0 min 0,0 UV-I 37 W/m 0,0 km/h (0 Bft)
28.02.2013 16:50 5,1 C 4,0 C 79 % 1026,0 hPa 0,0 l/m 0 min 0 min 0,0 UV-I 37 W/m 0,0 km/h (0 Bft)
28.02.2013 16:52 5,1 C 4,0 C 79 % 1025,9 hPa 0,0 l/m 0 min 0 min 0,0 UV-I 35 W/m 0,0 km/h (0 Bft)
28.02.2013 16:54 5,1 C 4,0 C 80 % 1026,0 hPa 0,0 l/m 0 min 0 min 0,0 UV-I 35 W/m 0,0 km/h (0 Bft)
28.02.2013 16:56 5,1 C 4,0 C 80 % 1026,0 hPa 0,0 l/m 0 min 0 min 0,0 UV-I 33 W/m 7,7 km/h (2 Bft)
28.02.2013 16:58 5,1 C 4,0 C 80 % 1026,0 hPa 0,0 l/m 0 min 0 min 0,0 UV-I 32 W/m 0,0 km/h (0 Bft)
28.02.2013 17:00 5,1 C 4,0 C 80 % 1026,0 hPa 0,0 l/m 0 min 0 min 0,0 UV-I 28 W/m 0,0 km/h (0 Bft)
28.02.2013 17:02 5,1 C 4,0 C 80 % 1025,9 hPa 0,0 l/m 0 min 0 min 0,0 UV-I 26 W/m 0,0 km/h (0 Bft)
28.02.2013 17:04 5,1 C 4,0 C 80 % 1025,9 hPa 0,0 l/m 0 min 0 min 0,0 UV-I 25 W/m 0,0 km/h (0 Bft)
28.02.2013 17:06 5,1 C 4,0 C 80 % 1025,9 hPa 0,0 l/m 0 min 0 min 0,0 UV-I 25 W/m 0,0 km/h (0 Bft)
28.02.2013 17:08 5,1 C 4,0 C 80 % 1026,0 hPa 0,0 l/m 0 min 0 min 0,0 UV-I 23 W/m 0,0 km/h (0 Bft)
28.02.2013 17:10 5,1 C 4,0 C 80 % 1025,9 hPa 0,0 l/m 0 min 0 min 0,0 UV-I 21 W/m 0,0 km/h (0 Bft)
28.02.2013 17:12 5,1 C 4,0 C 81 % 1026,0 hPa 0,0 l/m 0 min 0 min 0,0 UV-I 21 W/m 0,0 km/h (0 Bft)
28.02.2013 17:14 5,1 C 4,0 C 81 % 1026,0 hPa 0,0 l/m 0 min 0 min 0,0 UV-I 21 W/m 0,0 km/h (0 Bft)
28.02.2013 17:16 5,0 C 4,0 C 81 % 1025,9 hPa 0,0 l/m 0 min 0 min 0,0 UV-I 19 W/m 0,0 km/h (0 Bft)
28.02.2013 17:18 5,0 C 4,0 C 81 % 1025,9 hPa 0,0 l/m 0 min 0 min 0,0 UV-I 18 W/m 0,0 km/h (0 Bft)
28.02.2013 17:20 5,0 C 4,0 C 81 % 1025,9 hPa 0,0 l/m 0 min 0 min 0,0 UV-I 18 W/m 0,0 km/h (0 Bft)
28.02.2013 17:22 5,0 C 4,0 C 81 % 1026,0 hPa 0,0 l/m 0 min 0 min 0,0 UV-I 18 W/m 0,0 km/h (0 Bft)
28.02.2013 17:24 5,0 C 4,0 C 81 % 1025,9 hPa 0,0 l/m 0 min 0 min 0,0 UV-I 18 W/m 0,0 km/h (0 Bft)
28.02.2013 17:26 4,9 C 3,4 C 81 % 1026,0 hPa 0,0 l/m 0 min 0 min 0,0 UV-I 18 W/m 0,0 km/h (0 Bft)
28.02.2013 17:28 4,9 C 3,4 C 81 % 1026,0 hPa 0,0 l/m 0 min 0 min 0,0 UV-I 18 W/m 0,0 km/h (0 Bft)
28.02.2013 17:30 4,9 C 3,4 C 81 % 1026,0 hPa 0,0 l/m 0 min 0 min 0,0 UV-I 18 W/m 0,0 km/h (0 Bft)
28.02.2013 17:32 4,9 C 3,4 C 81 % 1026,0 hPa 0,0 l/m 0 min 0 min 0,0 UV-I 16 W/m 0,0 km/h (0 Bft)
28.02.2013 17:34 4,9 C 3,4 C 81 % 1025,9 hPa 0,0 l/m 0 min 0 min 0,0 UV-I 14 W/m 0,0 km/h (0 Bft)
28.02.2013 17:36 4,8 C 3,4 C 81 % 1026,0 hPa 0,0 l/m 0 min 0 min 0,0 UV-I 12 W/m 0,0 km/h (0 Bft)
28.02.2013 17:38 4,8 C 3,4 C 82 % 1026,0 hPa 0,0 l/m 0 min 0 min 0,0 UV-I 11 W/m 0,0 km/h (0 Bft)
28.02.2013 17:40 4,8 C 3,4 C 82 % 1025,9 hPa 0,0 l/m 0 min 0 min 0,0 UV-I 11 W/m 0,0 km/h (0 Bft)
28.02.2013 17:42 4,8 C 3,4 C 82 % 1025,9 hPa 0,0 l/m 0 min 0 min 0,0 UV-I 9 W/m 0,0 km/h (0 Bft)
28.02.2013 17:44 4,8 C 3,4 C 82 % 1025,9 hPa 0,0 l/m 0 min 0 min 0,0 UV-I 9 W/m 0,0 km/h (0 Bft)
28.02.2013 17:46 4,8 C 3,4 C 82 % 1025,9 hPa 0,0 l/m 0 min 0 min 0,0 UV-I 7 W/m 0,0 km/h (0 Bft)
28.02.2013 17:48 4,8 C 3,4 C 82 % 1025,9 hPa 0,0 l/m 0 min 0 min 0,0 UV-I 7 W/m 0,0 km/h (0 Bft)
28.02.2013 17:50 4,8 C 3,4 C 82 % 1026,0 hPa 0,0 l/m 0 min 0 min 0,0 UV-I 7 W/m 0,0 km/h (0 Bft)
28.02.2013 17:52 4,8 C 3,4 C 82 % 1026,0 hPa 0,0 l/m 0 min 0 min 0,0 UV-I 5 W/m 2,6 km/h (1 Bft)
28.02.2013 17:54 4,7 C 3,4 C 82 % 1026,0 hPa 0,0 l/m 0 min 0 min 0,0 UV-I 5 W/m 0,0 km/h (0 Bft)
28.02.2013 17:56 4,7 C 3,4 C 82 % 1026,0 hPa 0,0 l/m 0 min 0 min 0,0 UV-I 5 W/m 7,7 km/h (2 Bft)
28.02.2013 17:58 4,7 C 3,4 C 82 % 1026,0 hPa 0,0 l/m 0 min 0 min 0,0 UV-I 0 W/m 7,7 km/h (2 Bft)
28.02.2013 18:00 4,7 C 3,4 C 82 % 1026,0 hPa 0,0 l/m 0 min 0 min 0,0 UV-I 0 W/m 0,0 km/h (0 Bft)
28.02.2013 18:02 4,7 C 3,4 C 82 % 1026,1 hPa 0,0 l/m 0 min 0 min 0,0 UV-I 0 W/m 0,0 km/h (0 Bft)
28.02.2013 18:06 4,7 C 3,4 C 82 % 1025,9 hPa 0,0 l/m 0 min 0 min 0,0 UV-I 0 W/m 5,1 km/h (1 Bft)
28.02.2013 18:08 4,7 C 3,4 C 82 % 1026,0 hPa 0,0 l/m 0 min 0 min 0,0 UV-I 0 W/m 0,0 km/h (0 Bft)
28.02.2013 18:10 4,6 C 3,4 C 82 % 1026,0 hPa 0,0 l/m 0 min 0 min 0,0 UV-I 0 W/m 0,0 km/h (0 Bft)
28.02.2013 18:12 4,6 C 3,4 C 82 % 1026,0 hPa 0,0 l/m 0 min 0 min 0,0 UV-I 0 W/m 2,6 km/h (1 Bft)
28.02.2013 18:14 4,6 C 2,9 C 82 % 1026,1 hPa 0,0 l/m 0 min 0 min 0,0 UV-I 0 W/m 2,6 km/h (1 Bft)
28.02.2013 18:16 4,6 C 2,9 C 82 % 1026,0 hPa 0,0 l/m 0 min 0 min 0,0 UV-I 0 W/m 0,0 km/h (0 Bft)
28.02.2013 18:18 4,6 C 2,9 C 82 % 1026,1 hPa 0,0 l/m 0 min 0 min 0,0 UV-I 0 W/m 7,7 km/h (2 Bft)
28.02.2013 18:20 4,5 C 2,9 C 82 % 1026,0 hPa 0,0 l/m 0 min 0 min 0,0 UV-I 0 W/m 5,1 km/h (1 Bft)
28.02.2013 18:22 4,5 C 2,9 C 82 % 1026,1 hPa 0,0 l/m 0 min 0 min 0,0 UV-I 0 W/m 5,1 km/h (1 Bft)
28.02.2013 18:24 4,5 C 2,9 C 83 % 1026,1 hPa 0,0 l/m 0 min 0 min 0,0 UV-I 0 W/m 5,1 km/h (1 Bft)
28.02.2013 18:26 4,4 C 2,9 C 83 % 1026,1 hPa 0,0 l/m 0 min 0 min 0,0 UV-I 0 W/m 7,7 km/h (2 Bft)
28.02.2013 18:28 4,4 C 2,9 C 83 % 1026,2 hPa 0,0 l/m 0 min 0 min 0,0 UV-I 0 W/m 7,7 km/h (2 Bft)
28.02.2013 18:30 4,4 C 2,9 C 83 % 1026,2 hPa 0,0 l/m 0 min 0 min 0,0 UV-I 0 W/m 0,0 km/h (0 Bft)
28.02.2013 18:32 4,4 C 2,9 C 83 % 1026,2 hPa 0,0 l/m 0 min 0 min 0,0 UV-I 0 W/m 0,0 km/h (0 Bft)
28.02.2013 18:34 4,4 C 2,9 C 84 % 1026,2 hPa 0,0 l/m 0 min 0 min 0,0 UV-I 0 W/m 5,1 km/h (1 Bft)
28.02.2013 18:36 4,3 C 2,9 C 84 % 1026,2 hPa 0,0 l/m 0 min 0 min 0,0 UV-I 0 W/m 7,7 km/h (2 Bft)
28.02.2013 18:38 4,3 C 2,9 C 84 % 1026,1 hPa 0,0 l/m 0 min 0 min 0,0 UV-I 0 W/m 7,7 km/h (2 Bft)
28.02.2013 18:40 4,3 C 2,9 C 84 % 1026,2 hPa 0,0 l/m 0 min 0 min 0,0 UV-I 0 W/m 12,9 km/h (3 Bft)
28.02.2013 18:42 4,3 C 2,9 C 84 % 1026,2 hPa 0,0 l/m 0 min 0 min 0,0 UV-I 0 W/m 15,4 km/h (3 Bft)
28.02.2013 18:44 4,3 C 2,9 C 84 % 1026,2 hPa 0,0 l/m 0 min 0 min 0,0 UV-I 0 W/m 12,9 km/h (3 Bft)
28.02.2013 18:46 4,2 C 2,9 C 84 % 1026,3 hPa 0,0 l/m 0 min 0 min 0,0 UV-I 0 W/m 12,9 km/h (3 Bft)
28.02.2013 18:48 4,2 C 2,9 C 84 % 1026,3 hPa 0,0 l/m 0 min 0 min 0,0 UV-I 0 W/m 12,9 km/h (3 Bft)
28.02.2013 18:50 4,1 C 2,9 C 84 % 1026,4 hPa 0,0 l/m 0 min 0 min 0,0 UV-I 0 W/m 15,4 km/h (3 Bft)
28.02.2013 18:52 4,1 C 2,9 C 84 % 1026,3 hPa 0,0 l/m 0 min 0 min 0,0 UV-I 0 W/m 15,4 km/h (3 Bft)
28.02.2013 18:54 4,1 C 2,9 C 85 % 1026,3 hPa 0,0 l/m 0 min 0 min 0,0 UV-I 0 W/m 10,3 km/h (2 Bft)
28.02.2013 18:56 4,1 C 2,9 C 85 % 1026,3 hPa 0,0 l/m 0 min 0 min 0,0 UV-I 0 W/m 12,9 km/h (3 Bft)
28.02.2013 18:58 4,0 C 2,9 C 85 % 1026,3 hPa 0,0 l/m 0 min 0 min 0,0 UV-I 0 W/m 15,4 km/h (3 Bft)
28.02.2013 19:00 4,0 C 2,9 C 85 % 1026,3 hPa 0,0 l/m 0 min 0 min 0,0 UV-I 0 W/m 18,0 km/h (3 Bft)
28.02.2013 19:02 3,9 C 2,9 C 85 % 1026,3 hPa 0,0 l/m 0 min 0 min 0,0 UV-I 0 W/m 10,3 km/h (2 Bft)
28.02.2013 19:04 3,9 C 2,9 C 85 % 1026,3 hPa 0,0 l/m 0 min 0 min 0,0 UV-I 0 W/m 12,9 km/h (3 Bft)
28.02.2013 19:06 3,9 C 2,9 C 85 % 1026,2 hPa 0,0 l/m 0 min 0 min 0,0 UV-I 0 W/m 10,3 km/h (2 Bft)
28.02.2013 19:08 3,9 C 2,9 C 85 % 1026,3 hPa 0,0 l/m 0 min 0 min 0,0 UV-I 0 W/m 12,9 km/h (3 Bft)
28.02.2013 19:10 3,8 C 2,3 C 85 % 1026,3 hPa 0,0 l/m 0 min 0 min 0,0 UV-I 0 W/m 18,0 km/h (3 Bft)
28.02.2013 19:12 3,8 C 2,3 C 85 % 1026,3 hPa 0,0 l/m 0 min 0 min 0,0 UV-I 0 W/m 15,4 km/h (3 Bft)
28.02.2013 19:14 3,8 C 2,3 C 86 % 1026,3 hPa 0,0 l/m 0 min 0 min 0,0 UV-I 0 W/m 7,7 km/h (2 Bft)
28.02.2013 19:16 3,8 C 2,3 C 85 % 1026,2 hPa 0,0 l/m 0 min 0 min 0,0 UV-I 0 W/m 10,3 km/h (2 Bft)
28.02.2013 19:18 3,8 C 2,3 C 86 % 1026,2 hPa 0,0 l/m 0 min 0 min 0,0 UV-I 0 W/m 10,3 km/h (2 Bft)
28.02.2013 19:20 3,7 C 2,3 C 86 % 1026,2 hPa 0,0 l/m 0 min 0 min 0,0 UV-I 0 W/m 7,7 km/h (2 Bft)
28.02.2013 19:22 3,7 C 2,3 C 86 % 1026,2 hPa 0,0 l/m 0 min 0 min 0,0 UV-I 0 W/m 7,7 km/h (2 Bft)
28.02.2013 19:24 3,7 C 2,3 C 86 % 1026,2 hPa 0,0 l/m 0 min 0 min 0,0 UV-I 0 W/m 5,1 km/h (1 Bft)
28.02.2013 19:26 3,7 C 2,3 C 86 % 1026,2 hPa 0,0 l/m 0 min 0 min 0,0 UV-I 0 W/m 7,7 km/h (2 Bft)
28.02.2013 19:28 3,7 C 2,3 C 86 % 1026,2 hPa 0,0 l/m 0 min 0 min 0,0 UV-I 0 W/m 10,3 km/h (2 Bft)
28.02.2013 19:30 3,6 C 2,3 C 86 % 1026,2 hPa 0,0 l/m 0 min 0 min 0,0 UV-I 0 W/m 7,7 km/h (2 Bft)
28.02.2013 19:32 3,6 C 2,3 C 86 % 1026,2 hPa 0,0 l/m 0 min 0 min 0,0 UV-I 0 W/m 2,6 km/h (1 Bft)
28.02.2013 19:34 3,6 C 2,3 C 86 % 1026,2 hPa 0,0 l/m 0 min 0 min 0,0 UV-I 0 W/m 0,0 km/h (0 Bft)
28.02.2013 19:36 3,6 C 2,3 C 86 % 1026,2 hPa 0,0 l/m 0 min 0 min 0,0 UV-I 0 W/m 10,3 km/h (2 Bft)
28.02.2013 19:38 3,6 C 2,3 C 87 % 1026,2 hPa 0,0 l/m 0 min 0 min 0,0 UV-I 0 W/m 7,7 km/h (2 Bft)
28.02.2013 19:40 3,6 C 2,3 C 87 % 1026,2 hPa 0,0 l/m 0 min 0 min 0,0 UV-I 0 W/m 10,3 km/h (2 Bft)
28.02.2013 19:42 3,5 C 2,3 C 87 % 1026,2 hPa 0,0 l/m 0 min 0 min 0,0 UV-I 0 W/m 10,3 km/h (2 Bft)
28.02.2013 19:44 3,5 C 2,3 C 87 % 1026,2 hPa 0,0 l/m 0 min 0 min 0,0 UV-I 0 W/m 7,7 km/h (2 Bft)
28.02.2013 19:46 3,5 C 2,3 C 87 % 1026,2 hPa 0,0 l/m 0 min 0 min 0,0 UV-I 0 W/m 0,0 km/h (0 Bft)
28.02.2013 19:48 3,4 C 2,3 C 87 % 1026,2 hPa 0,0 l/m 0 min 0 min 0,0 UV-I 0 W/m 12,9 km/h (3 Bft)
28.02.2013 19:50 3,4 C 2,3 C 87 % 1026,2 hPa 0,0 l/m 0 min 0 min 0,0 UV-I 0 W/m 5,1 km/h (1 Bft)
28.02.2013 19:52 3,4 C 2,3 C 87 % 1026,2 hPa 0,0 l/m 0 min 0 min 0,0 UV-I 0 W/m 12,9 km/h (3 Bft)
28.02.2013 19:54 3,4 C 2,3 C 87 % 1026,2 hPa 0,0 l/m 0 min 0 min 0,0 UV-I 0 W/m 10,3 km/h (2 Bft)
28.02.2013 19:56 3,3 C 2,3 C 87 % 1026,2 hPa 0,0 l/m 0 min 0 min 0,0 UV-I 0 W/m 10,3 km/h (2 Bft)
28.02.2013 19:58 3,3 C 2,3 C 87 % 1026,2 hPa 0,0 l/m 0 min 0 min 0,0 UV-I 0 W/m 7,7 km/h (2 Bft)
28.02.2013 20:00 3,3 C 2,3 C 87 % 1026,2 hPa 0,0 l/m 0 min 0 min 0,0 UV-I 0 W/m 5,1 km/h (1 Bft)
28.02.2013 20:02 3,3 C 2,3 C 87 % 1026,2 hPa 0,0 l/m 0 min 0 min 0,0 UV-I 0 W/m 15,4 km/h (3 Bft)
28.02.2013 20:04 3,3 C 1,8 C 88 % 1026,2 hPa 0,0 l/m 0 min 0 min 0,0 UV-I 0 W/m 2,6 km/h (1 Bft)
28.02.2013 20:06 3,2 C 1,8 C 88 % 1026,2 hPa 0,0 l/m 0 min 0 min 0,0 UV-I 0 W/m 7,7 km/h (2 Bft)
28.02.2013 20:08 3,2 C 1,8 C 88 % 1026,2 hPa 0,0 l/m 0 min 0 min 0,0 UV-I 0 W/m 7,7 km/h (2 Bft)
28.02.2013 20:10 3,2 C 1,8 C 88 % 1026,2 hPa 0,0 l/m 0 min 0 min 0,0 UV-I 0 W/m 10,3 km/h (2 Bft)
28.02.2013 20:12 3,2 C 1,8 C 88 % 1026,2 hPa 0,0 l/m 0 min 0 min 0,0 UV-I 0 W/m 15,4 km/h (3 Bft)
28.02.2013 20:14 3,2 C 1,8 C 88 % 1026,3 hPa 0,0 l/m 0 min 0 min 0,0 UV-I 0 W/m 10,3 km/h (2 Bft)
28.02.2013 20:16 3,1 C 1,8 C 88 % 1026,2 hPa 0,0 l/m 0 min 0 min 0,0 UV-I 0 W/m 15,4 km/h (3 Bft)
28.02.2013 20:18 3,1 C 1,8 C 88 % 1026,2 hPa 0,0 l/m 0 min 0 min 0,0 UV-I 0 W/m 10,3 km/h (2 Bft)
28.02.2013 20:20 3,1 C 1,8 C 88 % 1026,2 hPa 0,0 l/m 0 min 0 min 0,0 UV-I 0 W/m 10,3 km/h (2 Bft)
28.02.2013 20:22 3,1 C 1,8 C 88 % 1026,2 hPa 0,0 l/m 0 min 0 min 0,0 UV-I 0 W/m 2,6 km/h (1 Bft)
28.02.2013 20:24 3,1 C 1,8 C 88 % 1026,2 hPa 0,0 l/m 0 min 0 min 0,0 UV-I 0 W/m 12,9 km/h (3 Bft)
28.02.2013 20:26 3,0 C 1,8 C 88 % 1026,2 hPa 0,0 l/m 0 min 0 min 0,0 UV-I 0 W/m 15,4 km/h (3 Bft)
28.02.2013 20:28 3,0 C 1,8 C 88 % 1026,1 hPa 0,0 l/m 0 min 0 min 0,0 UV-I 0 W/m 12,9 km/h (3 Bft)
28.02.2013 20:30 2,9 C 1,8 C 88 % 1026,2 hPa 0,0 l/m 0 min 0 min 0,0 UV-I 0 W/m 7,7 km/h (2 Bft)
28.02.2013 20:32 2,9 C 1,8 C 89 % 1026,2 hPa 0,0 l/m 0 min 0 min 0,0 UV-I 0 W/m 10,3 km/h (2 Bft)
28.02.2013 20:34 2,9 C 1,8 C 89 % 1026,2 hPa 0,0 l/m 0 min 0 min 0,0 UV-I 0 W/m 7,7 km/h (2 Bft)
28.02.2013 20:36 2,9 C 1,8 C 89 % 1026,2 hPa 0,0 l/m 0 min 0 min 0,0 UV-I 0 W/m 10,3 km/h (2 Bft)
28.02.2013 20:38 2,9 C 1,8 C 89 % 1026,2 hPa 0,0 l/m 0 min 0 min 0,0 UV-I 0 W/m 10,3 km/h (2 Bft)
28.02.2013 20:40 2,8 C 1,8 C 89 % 1026,2 hPa 0,0 l/m 0 min 0 min 0,0 UV-I 0 W/m 12,9 km/h (3 Bft)
28.02.2013 20:42 2,8 C 1,8 C 89 % 1026,2 hPa 0,0 l/m 0 min 0 min 0,0 UV-I 0 W/m 15,4 km/h (3 Bft)
28.02.2013 20:44 2,8 C 1,8 C 89 % 1026,2 hPa 0,0 l/m 0 min 0 min 0,0 UV-I 0 W/m 12,9 km/h (3 Bft)
28.02.2013 20:46 2,8 C 1,8 C 89 % 1026,2 hPa 0,0 l/m 0 min 0 min 0,0 UV-I 0 W/m 7,7 km/h (2 Bft)
28.02.2013 20:48 2,8 C 1,8 C 89 % 1026,2 hPa 0,0 l/m 0 min 0 min 0,0 UV-I 0 W/m 0,0 km/h (0 Bft)
28.02.2013 20:50 2,8 C 1,8 C 89 % 1026,2 hPa 0,0 l/m 0 min 0 min 0,0 UV-I 0 W/m 7,7 km/h (2 Bft)
28.02.2013 20:52 2,7 C 1,8 C 89 % 1026,2 hPa 0,0 l/m 0 min 0 min 0,0 UV-I 0 W/m 12,9 km/h (3 Bft)
28.02.2013 20:54 2,7 C 1,8 C 90 % 1026,2 hPa 0,0 l/m 0 min 0 min 0,0 UV-I 0 W/m 10,3 km/h (2 Bft)
28.02.2013 20:56 2,7 C 1,8 C 90 % 1026,2 hPa 0,0 l/m 0 min 0 min 0,0 UV-I 0 W/m 10,3 km/h (2 Bft)
28.02.2013 20:58 2,7 C 1,8 C 90 % 1026,2 hPa 0,0 l/m 0 min 0 min 0,0 UV-I 0 W/m 7,7 km/h (2 Bft)
28.02.2013 21:00 2,7 C 1,8 C 90 % 1026,2 hPa 0,0 l/m 0 min 0 min 0,0 UV-I 0 W/m 7,7 km/h (2 Bft)
28.02.2013 21:02 2,7 C 1,8 C 90 % 1026,2 hPa 0,0 l/m 0 min 0 min 0,0 UV-I 0 W/m 7,7 km/h (2 Bft)
28.02.2013 21:06 2,6 C 1,8 C 90 % 1026,2 hPa 0,0 l/m 0 min 0 min 0,0 UV-I 0 W/m 10,3 km/h (2 Bft)
28.02.2013 21:08 2,6 C 1,8 C 90 % 1026,2 hPa 0,0 l/m 0 min 0 min 0,0 UV-I 0 W/m 12,9 km/h (3 Bft)
28.02.2013 21:10 2,6 C 1,8 C 90 % 1026,3 hPa 0,0 l/m 0 min 0 min 0,0 UV-I 0 W/m 7,7 km/h (2 Bft)
28.02.2013 21:12 2,6 C 1,2 C 90 % 1026,2 hPa 0,0 l/m 0 min 0 min 0,0 UV-I 0 W/m 7,7 km/h (2 Bft)
28.02.2013 21:14 2,6 C 1,2 C 90 % 1026,3 hPa 0,0 l/m 0 min 0 min 0,0 UV-I 0 W/m 7,7 km/h (2 Bft)
28.02.2013 21:16 2,6 C 1,2 C 90 % 1026,3 hPa 0,0 l/m 0 min 0 min 0,0 UV-I 0 W/m 2,6 km/h (1 Bft)
28.02.2013 21:18 2,6 C 1,2 C 90 % 1026,2 hPa 0,0 l/m 0 min 0 min 0,0 UV-I 0 W/m 0,0 km/h (0 Bft)
28.02.2013 21:20 2,5 C 1,2 C 90 % 1026,2 hPa 0,0 l/m 0 min 0 min 0,0 UV-I 0 W/m 0,0 km/h (0 Bft)
28.02.2013 21:22 2,5 C 1,2 C 90 % 1026,3 hPa 0,0 l/m 0 min 0 min 0,0 UV-I 0 W/m 7,7 km/h (2 Bft)
28.02.2013 21:24 2,5 C 1,2 C 90 % 1026,2 hPa 0,0 l/m 0 min 0 min 0,0 UV-I 0 W/m 5,1 km/h (1 Bft)
28.02.2013 21:26 2,5 C 1,2 C 90 % 1026,3 hPa 0,0 l/m 0 min 0 min 0,0 UV-I 0 W/m 10,3 km/h (2 Bft)
28.02.2013 21:28 2,4 C 1,2 C 90 % 1026,3 hPa 0,0 l/m 0 min 0 min 0,0 UV-I 0 W/m 0,0 km/h (0 Bft)
28.02.2013 21:30 2,4 C 1,2 C 90 % 1026,3 hPa 0,0 l/m 0 min 0 min 0,0 UV-I 0 W/m 7,7 km/h (2 Bft)
28.02.2013 21:32 2,4 C 1,2 C 90 % 1026,3 hPa 0,0 l/m 0 min 0 min 0,0 UV-I 0 W/m 5,1 km/h (1 Bft)
28.02.2013 21:34 2,4 C 1,2 C 90 % 1026,3 hPa 0,0 l/m 0 min 0 min 0,0 UV-I 0 W/m 5,1 km/h (1 Bft)
28.02.2013 21:36 2,4 C 1,2 C 90 % 1026,3 hPa 0,0 l/m 0 min 0 min 0,0 UV-I 0 W/m 5,1 km/h (1 Bft)
28.02.2013 21:38 2,4 C 1,2 C 91 % 1026,3 hPa 0,0 l/m 0 min 0 min 0,0 UV-I 0 W/m 0,0 km/h (0 Bft)
28.02.2013 21:40 2,4 C 1,2 C 91 % 1026,3 hPa 0,0 l/m 0 min 0 min 0,0 UV-I 0 W/m 7,7 km/h (2 Bft)
28.02.2013 21:42 2,4 C 1,2 C 91 % 1026,3 hPa 0,0 l/m 0 min 0 min 0,0 UV-I 0 W/m 7,7 km/h (2 Bft)
28.02.2013 21:44 2,4 C 1,2 C 91 % 1026,3 hPa 0,0 l/m 0 min 0 min 0,0 UV-I 0 W/m 0,0 km/h (0 Bft)
28.02.2013 21:46 2,4 C 1,2 C 91 % 1026,4 hPa 0,0 l/m 0 min 0 min 0,0 UV-I 0 W/m 0,0 km/h (0 Bft)
28.02.2013 21:48 2,3 C 1,2 C 91 % 1026,4 hPa 0,0 l/m 0 min 0 min 0,0 UV-I 0 W/m 7,7 km/h (2 Bft)
28.02.2013 21:50 2,4 C 1,2 C 91 % 1026,4 hPa 0,0 l/m 0 min 0 min 0,0 UV-I 0 W/m 2,6 km/h (1 Bft)
28.02.2013 21:52 2,3 C 1,2 C 91 % 1026,5 hPa 0,0 l/m 0 min 0 min 0,0 UV-I 0 W/m 0,0 km/h (0 Bft)
28.02.2013 21:54 2,3 C 1,2 C 91 % 1026,5 hPa 0,0 l/m 0 min 0 min 0,0 UV-I 0 W/m 0,0 km/h (0 Bft)
28.02.2013 21:56 2,3 C 1,2 C 91 % 1026,5 hPa 0,0 l/m 0 min 0 min 0,0 UV-I 0 W/m 0,0 km/h (0 Bft)
28.02.2013 21:58 2,3 C 1,2 C 91 % 1026,5 hPa 0,0 l/m 0 min 0 min 0,0 UV-I 0 W/m 0,0 km/h (0 Bft)
28.02.2013 22:00 2,3 C 1,2 C 91 % 1026,5 hPa 0,0 l/m 0 min 0 min 0,0 UV-I 0 W/m 0,0 km/h (0 Bft)
28.02.2013 22:02 2,3 C 1,2 C 91 % 1026,4 hPa 0,0 l/m 0 min 0 min 0,0 UV-I 0 W/m 5,1 km/h (1 Bft)
28.02.2013 22:04 2,3 C 1,2 C 91 % 1026,4 hPa 0,0 l/m 0 min 0 min 0,0 UV-I 0 W/m 0,0 km/h (0 Bft)
28.02.2013 22:06 2,3 C 1,2 C 91 % 1026,5 hPa 0,0 l/m 0 min 0 min 0,0 UV-I 0 W/m 0,0 km/h (0 Bft)
28.02.2013 22:08 2,3 C 1,2 C 90 % 1026,6 hPa 0,0 l/m 0 min 0 min 0,0 UV-I 0 W/m 5,1 km/h (1 Bft)
28.02.2013 22:10 2,3 C 1,2 C 90 % 1026,6 hPa 0,0 l/m 0 min 0 min 0,0 UV-I 0 W/m 0,0 km/h (0 Bft)
28.02.2013 22:12 2,3 C 1,2 C 90 % 1026,6 hPa 0,0 l/m 0 min 0 min 0,0 UV-I 0 W/m 0,0 km/h (0 Bft)
28.02.2013 22:14 2,2 C 1,2 C 90 % 1026,6 hPa 0,0 l/m 0 min 0 min 0,0 UV-I 0 W/m 10,3 km/h (2 Bft)
28.02.2013 22:16 2,2 C 1,2 C 90 % 1026,5 hPa 0,0 l/m 0 min 0 min 0,0 UV-I 0 W/m 0,0 km/h (0 Bft)
28.02.2013 22:18 2,2 C 1,2 C 90 % 1026,6 hPa 0,0 l/m 0 min 0 min 0,0 UV-I 0 W/m 5,1 km/h (1 Bft)
28.02.2013 22:20 2,2 C 1,2 C 90 % 1026,5 hPa 0,0 l/m 0 min 0 min 0,0 UV-I 0 W/m 5,1 km/h (1 Bft)
28.02.2013 22:22 2,2 C 1,2 C 90 % 1026,6 hPa 0,0 l/m 0 min 0 min 0,0 UV-I 0 W/m 0,0 km/h (0 Bft)
28.02.2013 22:24 2,2 C 1,2 C 90 % 1026,5 hPa 0,0 l/m 0 min 0 min 0,0 UV-I 0 W/m 5,1 km/h (1 Bft)
28.02.2013 22:26 2,2 C 1,2 C 90 % 1026,5 hPa 0,0 l/m 0 min 0 min 0,0 UV-I 0 W/m 7,7 km/h (2 Bft)
28.02.2013 22:28 2,2 C 1,2 C 89 % 1026,5 hPa 0,0 l/m 0 min 0 min 0,0 UV-I 0 W/m 10,3 km/h (2 Bft)
28.02.2013 22:30 2,1 C 1,2 C 89 % 1026,5 hPa 0,0 l/m 0 min 0 min 0,0 UV-I 0 W/m 10,3 km/h (2 Bft)
28.02.2013 22:32 2,1 C 1,2 C 89 % 1026,5 hPa 0,0 l/m 0 min 0 min 0,0 UV-I 0 W/m 12,9 km/h (3 Bft)
28.02.2013 22:34 2,1 C 1,2 C 89 % 1026,4 hPa 0,0 l/m 0 min 0 min 0,0 UV-I 0 W/m 12,9 km/h (3 Bft)
28.02.2013 22:36 2,1 C 1,2 C 89 % 1026,4 hPa 0,0 l/m 0 min 0 min 0,0 UV-I 0 W/m 7,7 km/h (2 Bft)
28.02.2013 22:38 2,1 C 1,2 C 89 % 1026,4 hPa 0,0 l/m 0 min 0 min 0,0 UV-I 0 W/m 2,6 km/h (1 Bft)
28.02.2013 22:40 2,0 C 1,2 C 89 % 1026,5 hPa 0,0 l/m 0 min 0 min 0,0 UV-I 0 W/m 10,3 km/h (2 Bft)
28.02.2013 22:42 2,0 C 1,2 C 89 % 1026,4 hPa 0,0 l/m 0 min 0 min 0,0 UV-I 0 W/m 10,3 km/h (2 Bft)
28.02.2013 22:44 2,0 C 1,2 C 89 % 1026,5 hPa 0,0 l/m 0 min 0 min 0,0 UV-I 0 W/m 7,7 km/h (2 Bft)
28.02.2013 22:46 1,9 C 1,2 C 89 % 1026,5 hPa 0,0 l/m 0 min 0 min 0,0 UV-I 0 W/m 18,0 km/h (3 Bft)
28.02.2013 22:48 1,9 C 1,2 C 89 % 1026,5 hPa 0,0 l/m 0 min 0 min 0,0 UV-I 0 W/m 18,0 km/h (3 Bft)
28.02.2013 22:50 1,9 C 1,2 C 89 % 1026,6 hPa 0,0 l/m 0 min 0 min 0,0 UV-I 0 W/m 10,3 km/h (2 Bft)
28.02.2013 22:52 1,9 C 1,2 C 89 % 1026,5 hPa 0,0 l/m 0 min 0 min 0,0 UV-I 0 W/m 10,3 km/h (2 Bft)
28.02.2013 22:54 1,9 C 1,2 C 89 % 1026,5 hPa 0,0 l/m 0 min 0 min 0,0 UV-I 0 W/m 10,3 km/h (2 Bft)
28.02.2013 22:56 1,9 C 1,2 C 88 % 1026,5 hPa 0,0 l/m 0 min 0 min 0,0 UV-I 0 W/m 7,7 km/h (2 Bft)
28.02.2013 22:58 1,9 C 0,7 C 88 % 1026,5 hPa 0,0 l/m 0 min 0 min 0,0 UV-I 0 W/m 7,7 km/h (2 Bft)
28.02.2013 23:00 1,9 C 0,7 C 88 % 1026,5 hPa 0,0 l/m 0 min 0 min 0,0 UV-I 0 W/m 10,3 km/h (2 Bft)
28.02.2013 23:02 1,9 C 0,7 C 88 % 1026,5 hPa 0,0 l/m 0 min 0 min 0,0 UV-I 0 W/m 7,7 km/h (2 Bft)
28.02.2013 23:04 1,8 C 0,7 C 88 % 1026,6 hPa 0,0 l/m 0 min 0 min 0,0 UV-I 0 W/m 12,9 km/h (3 Bft)
28.02.2013 23:06 1,8 C 0,7 C 88 % 1026,5 hPa 0,0 l/m 0 min 0 min 0,0 UV-I 0 W/m 10,3 km/h (2 Bft)
28.02.2013 23:08 1,8 C 0,7 C 88 % 1026,5 hPa 0,0 l/m 0 min 0 min 0,0 UV-I 0 W/m 7,7 km/h (2 Bft)
28.02.2013 23:10 1,8 C 0,7 C 88 % 1026,5 hPa 0,0 l/m 0 min 0 min 0,0 UV-I 0 W/m 7,7 km/h (2 Bft)
28.02.2013 23:12 1,8 C 0,7 C 88 % 1026,5 hPa 0,0 l/m 0 min 0 min 0,0 UV-I 0 W/m 12,9 km/h (3 Bft)
28.02.2013 23:14 1,8 C 0,7 C 88 % 1026,5 hPa 0,0 l/m 0 min 0 min 0,0 UV-I 0 W/m 12,9 km/h (3 Bft)
28.02.2013 23:16 1,8 C 0,7 C 88 % 1026,5 hPa 0,0 l/m 0 min 0 min 0,0 UV-I 0 W/m 10,3 km/h (2 Bft)
28.02.2013 23:18 1,7 C 0,7 C 88 % 1026,5 hPa 0,0 l/m 0 min 0 min 0,0 UV-I 0 W/m 7,7 km/h (2 Bft)
28.02.2013 23:20 1,7 C 0,7 C 88 % 1026,5 hPa 0,0 l/m 0 min 0 min 0,0 UV-I 0 W/m 12,9 km/h (3 Bft)
28.02.2013 23:22 1,7 C 0,7 C 88 % 1026,5 hPa 0,0 l/m 0 min 0 min 0,0 UV-I 0 W/m 12,9 km/h (3 Bft)
28.02.2013 23:24 1,7 C 0,7 C 88 % 1026,4 hPa 0,0 l/m 0 min 0 min 0,0 UV-I 0 W/m 10,3 km/h (2 Bft)
28.02.2013 23:26 1,7 C 0,7 C 88 % 1026,4 hPa 0,0 l/m 0 min 0 min 0,0 UV-I 0 W/m 15,4 km/h (3 Bft)
28.02.2013 23:28 1,7 C 0,7 C 88 % 1026,4 hPa 0,0 l/m 0 min 0 min 0,0 UV-I 0 W/m 12,9 km/h (3 Bft)
28.02.2013 23:30 1,7 C 0,7 C 88 % 1026,5 hPa 0,0 l/m 0 min 0 min 0,0 UV-I 0 W/m 10,3 km/h (2 Bft)
28.02.2013 23:32 1,6 C 0,7 C 88 % 1026,4 hPa 0,0 l/m 0 min 0 min 0,0 UV-I 0 W/m 12,9 km/h (3 Bft)
28.02.2013 23:34 1,6 C 0,7 C 88 % 1026,5 hPa 0,0 l/m 0 min 0 min 0,0 UV-I 0 W/m 10,3 km/h (2 Bft)
28.02.2013 23:36 1,6 C 0,7 C 88 % 1026,5 hPa 0,0 l/m 0 min 0 min 0,0 UV-I 0 W/m 12,9 km/h (3 Bft)
28.02.2013 23:38 1,6 C 0,7 C 88 % 1026,5 hPa 0,0 l/m 0 min 0 min 0,0 UV-I 0 W/m 12,9 km/h (3 Bft)
28.02.2013 23:40 1,6 C 0,7 C 88 % 1026,5 hPa 0,0 l/m 0 min 0 min 0,0 UV-I 0 W/m 10,3 km/h (2 Bft)
28.02.2013 23:42 1,6 C 0,7 C 88 % 1026,4 hPa 0,0 l/m 0 min 0 min 0,0 UV-I 0 W/m 2,6 km/h (1 Bft)
28.02.2013 23:44 1,6 C 0,7 C 89 % 1026,5 hPa 0,0 l/m 0 min 0 min 0,0 UV-I 0 W/m 7,7 km/h (2 Bft)
28.02.2013 23:46 1,6 C 0,7 C 89 % 1026,5 hPa 0,0 l/m 0 min 0 min 0,0 UV-I 0 W/m 2,6 km/h (1 Bft)
28.02.2013 23:48 1,6 C 0,7 C 88 % 1026,4 hPa 0,0 l/m 0 min 0 min 0,0 UV-I 0 W/m 10,3 km/h (2 Bft)
28.02.2013 23:50 1,6 C 0,7 C 88 % 1026,4 hPa 0,0 l/m 0 min 0 min 0,0 UV-I 0 W/m 7,7 km/h (2 Bft)
28.02.2013 23:52 1,6 C 0,7 C 89 % 1026,4 hPa 0,0 l/m 0 min 0 min 0,0 UV-I 0 W/m 2,6 km/h (1 Bft)
28.02.2013 23:54 1,6 C 0,7 C 89 % 1026,4 hPa 0,0 l/m 0 min 0 min 0,0 UV-I 0 W/m 7,7 km/h (2 Bft)
28.02.2013 23:56 1,6 C 0,7 C 89 % 1026,4 hPa 0,0 l/m 0 min 0 min 0,0 UV-I 0 W/m 7,7 km/h (2 Bft)
28.02.2013 23:58 1,5 C 0,7 C 89 % 1026,4 hPa 0,0 l/m 0 min 0 min 0,0 UV-I 0 W/m 5,1 km/h (1 Bft)
_ Min-Zeit 06:50 00:00 16:08 16:52 - - - - - 00:00
Minimum _ 0,8 C 0,1 C 77 % 1025,9 hPa - - - - - 0,0 km/h (0 Bft)
_ Max-Zeit 15:48 15:40 03:58 00:06 00:00 15:08 00:00 13:22 15:42 19:00
Maximum _ 5,6 C 5,7 C 94 % 1030,2 hPa 0,0 l/m 2 min 0 min 0,5 UV-I 329 W/m 18,0 km/h
N-NO (3 Bft)
Durchschnitt _ 2,5 C 1,9 C 89 % 1027,5 hPa #0,0 l/m #12 min. #0 min. 0,5 UV-I 112 W/m 4,4 km/h (1 Bft)
© 2013 W. Hausmann